Wetterdaten: Montag, 09.08.2021
Datum Zeit Temp. Aussen Temp. o. S. Temp +5cm Feuchte Auss Luftdruck Regen Sonnenschein Regendauer Solar Windben Empfang
09.08.2021 00:00 15,8 C 15,0 C 13,4 C 86 % 1014,3 hPa 0,0 l/m 0 min 0 min 0 W/m 3,2 km/h (1 Bft) 95,74 %
09.08.2021 00:02 15,7 C 15,0 C 12,8 C 86 % 1014,4 hPa 0,0 l/m 0 min 0 min 0 W/m 6,4 km/h (2 Bft) 95,24 %
09.08.2021 00:04 15,7 C 15,0 C 12,8 C 87 % 1014,3 hPa 0,0 l/m 0 min 0 min 0 W/m 9,7 km/h (2 Bft) 95,65 %
09.08.2021 00:08 15,7 C 15,0 C 12,8 C 87 % 1014,4 hPa 0,0 l/m 0 min 0 min 0 W/m 12,9 km/h (3 Bft) 95,83 %
09.08.2021 00:10 15,6 C 14,4 C 12,8 C 87 % 1014,4 hPa 0,0 l/m 0 min 0 min 0 W/m 19,3 km/h (3 Bft) 93,62 %
09.08.2021 00:12 15,6 C 14,4 C 12,8 C 87 % 1014,4 hPa 0,0 l/m 0 min 0 min 0 W/m 12,9 km/h (3 Bft) 95,74 %
09.08.2021 00:14 15,6 C 14,4 C 12,8 C 87 % 1014,4 hPa 0,0 l/m 0 min 0 min 0 W/m 12,9 km/h (3 Bft) 95,74 %
09.08.2021 00:16 15,6 C 14,4 C 12,8 C 87 % 1014,4 hPa 0,0 l/m 0 min 0 min 0 W/m 6,4 km/h (2 Bft) 97,87 %
09.08.2021 00:18 15,6 C 14,4 C 12,8 C 87 % 1014,4 hPa 0,0 l/m 0 min 0 min 0 W/m 9,7 km/h (2 Bft) 97,87 %
09.08.2021 00:20 15,5 C 14,4 C 12,8 C 87 % 1014,4 hPa 0,0 l/m 0 min 0 min 0 W/m 6,4 km/h (2 Bft) 97,83 %
09.08.2021 00:22 15,5 C 14,4 C 12,8 C 87 % 1014,4 hPa 0,0 l/m 0 min 0 min 0 W/m 12,9 km/h (3 Bft) 97,87 %
09.08.2021 00:24 15,5 C 14,4 C 12,8 C 87 % 1014,4 hPa 0,0 l/m 0 min 0 min 0 W/m 12,9 km/h (3 Bft) 97,87 %
09.08.2021 00:26 15,5 C 14,4 C 12,8 C 87 % 1014,4 hPa 0,0 l/m 0 min 0 min 0 W/m 6,4 km/h (2 Bft) 97,87 %
09.08.2021 00:28 15,5 C 14,4 C 12,8 C 88 % 1014,4 hPa 0,0 l/m 0 min 0 min 0 W/m 6,4 km/h (2 Bft) 97,87 %
09.08.2021 00:30 15,5 C 14,4 C 12,8 C 88 % 1014,4 hPa 0,0 l/m 0 min 0 min 0 W/m 3,2 km/h (1 Bft) 97,87 %
09.08.2021 00:32 15,5 C 14,4 C 12,8 C 88 % 1014,4 hPa 0,0 l/m 0 min 0 min 0 W/m 6,4 km/h (2 Bft) 97,83 %
09.08.2021 00:34 15,5 C 14,4 C 12,8 C 88 % 1014,4 hPa 0,0 l/m 0 min 0 min 0 W/m 6,4 km/h (2 Bft) 100,00 %
09.08.2021 00:36 15,4 C 14,4 C 12,8 C 88 % 1014,4 hPa 0,0 l/m 0 min 0 min 0 W/m 6,4 km/h (2 Bft) 100,00 %
09.08.2021 00:38 15,4 C 14,4 C 12,8 C 88 % 1014,4 hPa 0,0 l/m 0 min 0 min 0 W/m 6,4 km/h (2 Bft) 100,00 %
09.08.2021 00:40 15,4 C 14,4 C 12,8 C 88 % 1014,4 hPa 0,0 l/m 0 min 0 min 0 W/m 6,4 km/h (2 Bft) 100,00 %
09.08.2021 00:42 15,4 C 14,4 C 12,8 C 88 % 1014,5 hPa 0,0 l/m 0 min 0 min 0 W/m 6,4 km/h (2 Bft) 100,00 %
09.08.2021 00:44 15,4 C 14,4 C 12,8 C 88 % 1014,5 hPa 0,0 l/m 0 min 0 min 0 W/m 6,4 km/h (2 Bft) 100,00 %
09.08.2021 00:46 15,4 C 14,4 C 12,8 C 88 % 1014,5 hPa 0,0 l/m 0 min 0 min 0 W/m 6,4 km/h (2 Bft) 100,00 %
09.08.2021 00:48 15,4 C 14,4 C 12,8 C 88 % 1014,5 hPa 0,0 l/m 0 min 0 min 0 W/m 6,4 km/h (2 Bft) 100,00 %
09.08.2021 00:50 15,3 C 14,4 C 12,8 C 88 % 1014,5 hPa 0,0 l/m 0 min 0 min 0 W/m 6,4 km/h (2 Bft) 100,00 %
09.08.2021 00:52 15,3 C 14,4 C 12,8 C 88 % 1014,6 hPa 0,0 l/m 0 min 0 min 0 W/m 3,2 km/h (1 Bft) 95,74 %
09.08.2021 00:54 15,3 C 14,4 C 12,8 C 88 % 1014,6 hPa 0,0 l/m 0 min 0 min 0 W/m 6,4 km/h (2 Bft) 97,87 %
09.08.2021 00:56 15,3 C 14,4 C 12,8 C 89 % 1014,6 hPa 0,0 l/m 0 min 0 min 0 W/m 3,2 km/h (1 Bft) 97,83 %
09.08.2021 00:58 15,3 C 14,4 C 12,8 C 89 % 1014,6 hPa 0,0 l/m 0 min 0 min 0 W/m 6,4 km/h (2 Bft) 97,87 %
09.08.2021 01:00 15,3 C 14,4 C 12,8 C 89 % 1014,6 hPa 0,0 l/m 0 min 0 min 0 W/m 6,4 km/h (2 Bft) 97,87 %
09.08.2021 01:02 15,3 C 14,4 C 12,8 C 89 % 1014,6 hPa 0,0 l/m 0 min 0 min 0 W/m 6,4 km/h (2 Bft) 97,87 %
09.08.2021 01:04 15,3 C 14,4 C 12,8 C 89 % 1014,7 hPa 0,0 l/m 0 min 0 min 0 W/m 9,7 km/h (2 Bft) 97,87 %
09.08.2021 01:06 15,3 C 14,4 C 12,8 C 89 % 1014,7 hPa 0,0 l/m 0 min 0 min 0 W/m 6,4 km/h (2 Bft) 97,83 %
09.08.2021 01:08 15,3 C 14,4 C 12,8 C 89 % 1014,7 hPa 0,0 l/m 0 min 0 min 0 W/m 6,4 km/h (2 Bft) 97,87 %
09.08.2021 01:10 15,3 C 14,4 C 12,8 C 89 % 1014,7 hPa 0,0 l/m 0 min 0 min 0 W/m 12,9 km/h (3 Bft) 95,74 %
09.08.2021 01:12 15,3 C 15,0 C 12,8 C 89 % 1014,7 hPa 0,0 l/m 0 min 0 min 0 W/m 6,4 km/h (2 Bft) 97,87 %
09.08.2021 01:14 15,3 C 15,0 C 13,4 C 89 % 1014,7 hPa 0,0 l/m 0 min 0 min 0 W/m 9,7 km/h (2 Bft) 97,87 %
09.08.2021 01:16 15,3 C 15,0 C 13,4 C 89 % 1014,8 hPa 0,0 l/m 0 min 0 min 0 W/m 9,7 km/h (2 Bft) 97,87 %
09.08.2021 01:18 15,3 C 15,0 C 13,4 C 89 % 1014,7 hPa 0,0 l/m 0 min 0 min 0 W/m 6,4 km/h (2 Bft) 95,65 %
09.08.2021 01:20 15,4 C 15,0 C 13,4 C 89 % 1014,7 hPa 0,0 l/m 0 min 0 min 0 W/m 3,2 km/h (1 Bft) 95,74 %
09.08.2021 01:22 15,4 C 15,0 C 13,4 C 89 % 1014,7 hPa 0,0 l/m 0 min 0 min 0 W/m 6,4 km/h (2 Bft) 97,87 %
09.08.2021 01:24 15,4 C 15,0 C 13,4 C 89 % 1014,7 hPa 0,0 l/m 0 min 0 min 0 W/m 9,7 km/h (2 Bft) 97,87 %
09.08.2021 01:26 15,4 C 15,0 C 13,4 C 89 % 1014,7 hPa 0,0 l/m 0 min 0 min 0 W/m 6,4 km/h (2 Bft) 97,87 %
09.08.2021 01:28 15,4 C 15,0 C 13,4 C 89 % 1014,7 hPa 0,0 l/m 0 min 0 min 0 W/m 6,4 km/h (2 Bft) 95,74 %
09.08.2021 01:30 15,4 C 15,0 C 13,4 C 89 % 1014,8 hPa 0,0 l/m 0 min 0 min 0 W/m 3,2 km/h (1 Bft) 97,83 %
09.08.2021 01:32 15,4 C 15,0 C 13,4 C 89 % 1014,7 hPa 0,0 l/m 0 min 0 min 0 W/m 9,7 km/h (2 Bft) 97,87 %
09.08.2021 01:34 15,4 C 15,0 C 13,4 C 89 % 1014,7 hPa 0,0 l/m 0 min 0 min 0 W/m 6,4 km/h (2 Bft) 97,87 %
09.08.2021 01:36 15,4 C 15,0 C 13,4 C 89 % 1014,7 hPa 0,0 l/m 0 min 0 min 0 W/m 3,2 km/h (1 Bft) 97,87 %
09.08.2021 01:38 15,4 C 15,0 C 13,4 C 88 % 1014,8 hPa 0,0 l/m 0 min 0 min 0 W/m 3,2 km/h (1 Bft) 95,74 %
09.08.2021 01:40 15,4 C 15,0 C 13,4 C 88 % 1014,7 hPa 0,0 l/m 0 min 0 min 0 W/m 3,2 km/h (1 Bft) 95,74 %
09.08.2021 01:42 15,4 C 14,4 C 12,8 C 88 % 1014,7 hPa 0,0 l/m 0 min 0 min 0 W/m 3,2 km/h (1 Bft) 97,83 %
09.08.2021 01:44 15,4 C 14,4 C 12,8 C 88 % 1014,7 hPa 0,0 l/m 0 min 0 min 0 W/m 6,4 km/h (2 Bft) 95,74 %
09.08.2021 01:46 15,4 C 14,4 C 12,8 C 88 % 1014,6 hPa 0,0 l/m 0 min 0 min 0 W/m 6,4 km/h (2 Bft) 97,87 %
09.08.2021 01:48 15,4 C 14,4 C 12,8 C 88 % 1014,6 hPa 0,0 l/m 0 min 0 min 0 W/m 6,4 km/h (2 Bft) 97,87 %
09.08.2021 01:50 15,4 C 14,4 C 12,8 C 88 % 1014,7 hPa 0,0 l/m 0 min 0 min 0 W/m 6,4 km/h (2 Bft) 95,74 %
09.08.2021 01:52 15,4 C 14,4 C 12,8 C 88 % 1014,7 hPa 0,0 l/m 0 min 0 min 0 W/m 3,2 km/h (1 Bft) 97,87 %
09.08.2021 01:54 15,3 C 13,9 C 12,8 C 88 % 1014,7 hPa 0,0 l/m 0 min 0 min 0 W/m 6,4 km/h (2 Bft) 95,65 %
09.08.2021 01:56 15,3 C 13,9 C 12,3 C 88 % 1014,6 hPa 0,0 l/m 0 min 0 min 0 W/m 6,4 km/h (2 Bft) 97,87 %
09.08.2021 01:58 15,3 C 13,9 C 12,3 C 88 % 1014,7 hPa 0,0 l/m 0 min 0 min 0 W/m 3,2 km/h (1 Bft) 97,87 %
09.08.2021 02:00 15,2 C 13,9 C 12,3 C 89 % 1014,7 hPa 0,0 l/m 0 min 0 min 0 W/m 6,4 km/h (2 Bft) 97,87 %
09.08.2021 02:02 15,2 C 13,9 C 12,3 C 89 % 1014,7 hPa 0,0 l/m 0 min 0 min 0 W/m 3,2 km/h (1 Bft) 97,87 %
09.08.2021 02:04 15,1 C 13,9 C 12,3 C 89 % 1014,7 hPa 0,0 l/m 0 min 0 min 0 W/m 3,2 km/h (1 Bft) 97,87 %
09.08.2021 02:06 15,1 C 13,9 C 12,3 C 89 % 1014,7 hPa 0,0 l/m 0 min 0 min 0 W/m 3,2 km/h (1 Bft) 97,83 %
09.08.2021 02:08 15,1 C 13,9 C 12,3 C 89 % 1014,7 hPa 0,0 l/m 0 min 0 min 0 W/m 3,2 km/h (1 Bft) 95,74 %
09.08.2021 02:10 15,0 C 13,9 C 12,3 C 89 % 1014,7 hPa 0,0 l/m 0 min 0 min 0 W/m 0,0 km/h (0 Bft) 100,00 %
09.08.2021 02:12 15,0 C 13,9 C 12,3 C 89 % 1014,7 hPa 0,0 l/m 0 min 0 min 0 W/m 6,4 km/h (2 Bft) 97,87 %
09.08.2021 02:14 15,0 C 13,9 C 12,3 C 89 % 1014,7 hPa 0,0 l/m 0 min 0 min 0 W/m 3,2 km/h (1 Bft) 100,00 %
09.08.2021 02:16 15,0 C 13,9 C 12,3 C 89 % 1014,7 hPa 0,0 l/m 0 min 0 min 0 W/m 3,2 km/h (1 Bft) 100,00 %
09.08.2021 02:18 14,9 C 13,9 C 12,3 C 89 % 1014,7 hPa 0,0 l/m 0 min 0 min 0 W/m 3,2 km/h (1 Bft) 97,22 %
09.08.2021 02:20 14,9 C 13,9 C 12,3 C 89 % 1014,7 hPa 0,0 l/m 0 min 0 min 0 W/m 3,2 km/h (1 Bft) 100,00 %
09.08.2021 02:22 14,9 C 13,9 C 12,3 C 89 % 1014,7 hPa 0,0 l/m 0 min 0 min 0 W/m 3,2 km/h (1 Bft) 100,00 %
09.08.2021 02:24 14,9 C 13,9 C 12,3 C 89 % 1014,7 hPa 0,0 l/m 0 min 0 min 0 W/m 3,2 km/h (1 Bft) 97,14 %
09.08.2021 02:26 14,8 C 13,3 C 12,3 C 89 % 1014,7 hPa 0,0 l/m 0 min 0 min 0 W/m 3,2 km/h (1 Bft) 95,74 %
09.08.2021 02:28 14,8 C 13,3 C 12,3 C 90 % 1014,7 hPa 0,0 l/m 0 min 0 min 0 W/m 3,2 km/h (1 Bft) 94,83 %
09.08.2021 02:30 14,8 C 13,3 C 12,3 C 90 % 1014,7 hPa 0,0 l/m 0 min 0 min 0 W/m 3,2 km/h (1 Bft) 100,00 %
09.08.2021 02:32 14,8 C 13,3 C 12,3 C 90 % 1014,7 hPa 0,0 l/m 0 min 0 min 0 W/m 3,2 km/h (1 Bft) 95,65 %
09.08.2021 02:34 14,7 C 13,3 C 12,3 C 90 % 1014,7 hPa 0,0 l/m 0 min 0 min 0 W/m 3,2 km/h (1 Bft) 96,61 %
09.08.2021 02:36 14,7 C 13,3 C 12,3 C 90 % 1014,7 hPa 0,0 l/m 0 min 0 min 0 W/m 3,2 km/h (1 Bft) 95,74 %
09.08.2021 02:38 14,6 C 13,3 C 12,3 C 90 % 1014,7 hPa 0,0 l/m 0 min 0 min 0 W/m 3,2 km/h (1 Bft) 97,87 %
09.08.2021 02:40 14,6 C 13,3 C 12,3 C 90 % 1014,8 hPa 0,0 l/m 0 min 0 min 0 W/m 3,2 km/h (1 Bft) 97,14 %
09.08.2021 02:42 14,6 C 13,3 C 12,3 C 90 % 1014,8 hPa 0,0 l/m 0 min 0 min 0 W/m 6,4 km/h (2 Bft) 97,87 %
09.08.2021 02:44 14,5 C 13,3 C 12,3 C 90 % 1014,8 hPa 0,0 l/m 0 min 0 min 0 W/m 6,4 km/h (2 Bft) 96,55 %
09.08.2021 02:46 14,5 C 13,3 C 12,3 C 90 % 1014,8 hPa 0,0 l/m 0 min 0 min 0 W/m 6,4 km/h (2 Bft) 94,29 %
09.08.2021 02:48 14,5 C 13,3 C 12,3 C 90 % 1014,8 hPa 0,0 l/m 0 min 0 min 0 W/m 6,4 km/h (2 Bft) 98,31 %
09.08.2021 02:50 14,4 C 13,3 C 12,3 C 90 % 1014,8 hPa 0,0 l/m 0 min 0 min 0 W/m 3,2 km/h (1 Bft) 97,87 %
09.08.2021 02:52 14,4 C 13,3 C 12,3 C 90 % 1014,8 hPa 0,0 l/m 0 min 0 min 0 W/m 3,2 km/h (1 Bft) 95,65 %
09.08.2021 02:54 14,4 C 13,3 C 12,3 C 90 % 1014,8 hPa 0,0 l/m 0 min 0 min 0 W/m 6,4 km/h (2 Bft) 97,87 %
09.08.2021 02:56 14,4 C 13,3 C 12,3 C 90 % 1014,8 hPa 0,0 l/m 0 min 0 min 0 W/m 6,4 km/h (2 Bft) 95,74 %
09.08.2021 02:58 14,3 C 13,3 C 12,3 C 90 % 1014,8 hPa 0,0 l/m 0 min 0 min 0 W/m 12,9 km/h (3 Bft) 97,87 %
09.08.2021 03:00 14,3 C 13,9 C 12,3 C 90 % 1014,8 hPa 0,0 l/m 0 min 0 min 0 W/m 9,7 km/h (2 Bft) 97,87 %
09.08.2021 03:02 14,3 C 13,9 C 12,3 C 90 % 1014,8 hPa 0,0 l/m 0 min 0 min 0 W/m 6,4 km/h (2 Bft) 100,00 %
09.08.2021 03:04 14,3 C 13,9 C 12,3 C 90 % 1014,8 hPa 0,0 l/m 0 min 0 min 0 W/m 6,4 km/h (2 Bft) 98,28 %
09.08.2021 03:06 14,2 C 13,9 C 12,3 C 90 % 1014,8 hPa 0,0 l/m 0 min 0 min 0 W/m 3,2 km/h (1 Bft) 97,87 %
09.08.2021 03:08 14,2 C 13,9 C 12,3 C 90 % 1014,8 hPa 0,0 l/m 0 min 0 min 0 W/m 6,4 km/h (2 Bft) 100,00 %
09.08.2021 03:10 14,2 C 13,9 C 12,3 C 90 % 1014,9 hPa 0,0 l/m 0 min 0 min 0 W/m 6,4 km/h (2 Bft) 97,87 %
09.08.2021 03:12 14,2 C 13,9 C 12,3 C 90 % 1014,9 hPa 0,0 l/m 0 min 0 min 0 W/m 3,2 km/h (1 Bft) 100,00 %
09.08.2021 03:14 14,2 C 13,9 C 12,3 C 90 % 1015,0 hPa 0,0 l/m 0 min 0 min 0 W/m 6,4 km/h (2 Bft) 100,00 %
09.08.2021 03:16 14,2 C 13,3 C 12,3 C 90 % 1015,0 hPa 0,0 l/m 0 min 0 min 0 W/m 3,2 km/h (1 Bft) 100,00 %
09.08.2021 03:18 14,2 C 13,3 C 12,3 C 90 % 1014,9 hPa 0,0 l/m 0 min 0 min 0 W/m 3,2 km/h (1 Bft) 100,00 %
09.08.2021 03:20 14,2 C 13,3 C 12,3 C 90 % 1015,0 hPa 0,0 l/m 0 min 0 min 0 W/m 3,2 km/h (1 Bft) 100,00 %
09.08.2021 03:22 14,2 C 13,3 C 12,3 C 90 % 1015,0 hPa 0,0 l/m 0 min 0 min 0 W/m 6,4 km/h (2 Bft) 100,00 %
09.08.2021 03:24 14,2 C 13,3 C 12,3 C 90 % 1015,1 hPa 0,0 l/m 0 min 0 min 0 W/m 3,2 km/h (1 Bft) 100,00 %
09.08.2021 03:26 14,2 C 13,3 C 12,3 C 90 % 1015,1 hPa 0,0 l/m 0 min 0 min 0 W/m 9,7 km/h (2 Bft) 100,00 %
09.08.2021 03:28 14,2 C 13,3 C 12,3 C 90 % 1015,1 hPa 0,0 l/m 0 min 0 min 0 W/m 6,4 km/h (2 Bft) 100,00 %
09.08.2021 03:30 14,2 C 13,3 C 12,3 C 90 % 1015,1 hPa 0,0 l/m 0 min 0 min 0 W/m 6,4 km/h (2 Bft) 95,74 %
09.08.2021 03:32 14,2 C 13,3 C 12,3 C 90 % 1015,1 hPa 0,0 l/m 0 min 0 min 0 W/m 9,7 km/h (2 Bft) 97,87 %
09.08.2021 03:34 14,2 C 13,3 C 12,3 C 90 % 1015,1 hPa 0,0 l/m 0 min 0 min 0 W/m 6,4 km/h (2 Bft) 97,87 %
09.08.2021 03:36 14,2 C 13,3 C 12,3 C 90 % 1015,1 hPa 0,0 l/m 0 min 0 min 0 W/m 6,4 km/h (2 Bft) 97,87 %
09.08.2021 03:38 14,2 C 13,3 C 12,3 C 90 % 1015,1 hPa 0,0 l/m 0 min 0 min 0 W/m 3,2 km/h (1 Bft) 95,65 %
09.08.2021 03:40 14,2 C 13,3 C 12,3 C 90 % 1015,1 hPa 0,0 l/m 0 min 0 min 0 W/m 3,2 km/h (1 Bft) 95,74 %
09.08.2021 03:42 14,2 C 13,3 C 12,3 C 90 % 1015,2 hPa 0,0 l/m 0 min 0 min 0 W/m 3,2 km/h (1 Bft) 97,87 %
09.08.2021 03:44 14,2 C 13,3 C 12,3 C 90 % 1015,1 hPa 0,0 l/m 0 min 0 min 0 W/m 3,2 km/h (1 Bft) 97,87 %
09.08.2021 03:46 14,2 C 13,3 C 12,3 C 90 % 1015,1 hPa 0,0 l/m 0 min 0 min 0 W/m 3,2 km/h (1 Bft) 97,87 %
09.08.2021 03:48 14,2 C 13,3 C 12,3 C 90 % 1015,2 hPa 0,0 l/m 0 min 0 min 0 W/m 3,2 km/h (1 Bft) 97,83 %
09.08.2021 03:50 14,2 C 13,3 C 12,3 C 90 % 1015,2 hPa 0,0 l/m 0 min 0 min 0 W/m 3,2 km/h (1 Bft) 97,87 %
09.08.2021 03:52 14,2 C 13,3 C 12,3 C 90 % 1015,2 hPa 0,0 l/m 0 min 0 min 0 W/m 3,2 km/h (1 Bft) 97,87 %
09.08.2021 03:54 14,2 C 13,3 C 12,3 C 90 % 1015,2 hPa 0,0 l/m 0 min 0 min 0 W/m 3,2 km/h (1 Bft) 97,87 %
09.08.2021 03:56 14,2 C 13,3 C 12,3 C 90 % 1015,2 hPa 0,0 l/m 0 min 0 min 0 W/m 3,2 km/h (1 Bft) 95,74 %
09.08.2021 03:58 14,2 C 13,3 C 12,3 C 90 % 1015,2 hPa 0,0 l/m 0 min 0 min 0 W/m 3,2 km/h (1 Bft) 95,74 %
09.08.2021 04:00 14,2 C 13,3 C 12,3 C 90 % 1015,2 hPa 0,0 l/m 0 min 0 min 0 W/m 3,2 km/h (1 Bft) 95,65 %
09.08.2021 04:05 14,2 C 13,3 C 12,3 C 90 % 1015,2 hPa 0,0 l/m 0 min 0 min 0 W/m 3,2 km/h (1 Bft) 97,06 %
09.08.2021 04:06 14,2 C 13,3 C 12,3 C 90 % 1015,2 hPa 0,0 l/m 0 min 0 min 0 W/m 3,2 km/h (1 Bft) 95,65 %
09.08.2021 04:08 14,2 C 13,3 C 12,3 C 90 % 1015,2 hPa 0,0 l/m 0 min 0 min 0 W/m 3,2 km/h (1 Bft) 97,87 %
09.08.2021 04:10 14,2 C 13,3 C 12,3 C 90 % 1015,2 hPa 0,0 l/m 0 min 0 min 0 W/m 3,2 km/h (1 Bft) 97,87 %
09.08.2021 04:12 14,2 C 13,9 C 12,3 C 90 % 1015,2 hPa 0,0 l/m 0 min 0 min 0 W/m 3,2 km/h (1 Bft) 97,87 %
09.08.2021 04:14 14,2 C 13,9 C 12,3 C 90 % 1015,1 hPa 0,0 l/m 0 min 0 min 0 W/m 3,2 km/h (1 Bft) 97,83 %
09.08.2021 04:16 14,2 C 13,9 C 12,3 C 90 % 1015,1 hPa 0,0 l/m 0 min 0 min 0 W/m 3,2 km/h (1 Bft) 97,87 %
09.08.2021 04:18 14,2 C 13,9 C 12,3 C 90 % 1015,1 hPa 0,0 l/m 0 min 0 min 0 W/m 3,2 km/h (1 Bft) 97,87 %
09.08.2021 04:20 14,2 C 13,9 C 12,3 C 90 % 1015,2 hPa 0,0 l/m 0 min 0 min 0 W/m 3,2 km/h (1 Bft) 97,87 %
09.08.2021 04:22 14,2 C 13,9 C 12,3 C 90 % 1015,1 hPa 0,0 l/m 0 min 0 min 0 W/m 3,2 km/h (1 Bft) 95,74 %
09.08.2021 04:24 14,2 C 13,9 C 12,3 C 90 % 1015,1 hPa 0,0 l/m 0 min 0 min 0 W/m 6,4 km/h (2 Bft) 97,83 %
09.08.2021 04:26 14,2 C 13,9 C 12,3 C 90 % 1015,1 hPa 0,0 l/m 0 min 0 min 0 W/m 3,2 km/h (1 Bft) 97,87 %
09.08.2021 04:28 14,2 C 13,9 C 12,3 C 90 % 1015,1 hPa 0,0 l/m 0 min 0 min 0 W/m 6,4 km/h (2 Bft) 97,87 %
09.08.2021 04:30 14,2 C 13,9 C 12,3 C 90 % 1015,1 hPa 0,0 l/m 0 min 0 min 0 W/m 6,4 km/h (2 Bft) 97,87 %
09.08.2021 04:32 14,2 C 13,9 C 12,3 C 90 % 1015,1 hPa 0,0 l/m 0 min 0 min 0 W/m 6,4 km/h (2 Bft) 97,87 %
09.08.2021 04:34 14,2 C 13,9 C 12,3 C 90 % 1015,1 hPa 0,0 l/m 0 min 0 min 0 W/m 3,2 km/h (1 Bft) 97,87 %
09.08.2021 04:36 14,2 C 13,9 C 12,3 C 90 % 1015,1 hPa 0,0 l/m 0 min 0 min 0 W/m 6,4 km/h (2 Bft) 97,83 %
09.08.2021 04:38 14,2 C 13,9 C 12,3 C 90 % 1015,0 hPa 0,0 l/m 0 min 0 min 0 W/m 6,4 km/h (2 Bft) 97,87 %
09.08.2021 04:40 14,2 C 13,9 C 12,3 C 90 % 1015,0 hPa 0,0 l/m 0 min 0 min 0 W/m 3,2 km/h (1 Bft) 95,74 %
09.08.2021 04:42 14,2 C 13,9 C 12,3 C 90 % 1015,0 hPa 0,0 l/m 0 min 0 min 0 W/m 6,4 km/h (2 Bft) 95,74 %
09.08.2021 04:44 14,2 C 13,9 C 12,3 C 90 % 1015,0 hPa 0,0 l/m 0 min 0 min 0 W/m 6,4 km/h (2 Bft) 95,74 %
09.08.2021 04:46 14,2 C 13,9 C 12,3 C 90 % 1015,0 hPa 0,0 l/m 0 min 0 min 0 W/m 6,4 km/h (2 Bft) 97,87 %
09.08.2021 04:48 14,2 C 13,9 C 12,3 C 90 % 1015,1 hPa 0,0 l/m 0 min 0 min 0 W/m 3,2 km/h (1 Bft) 95,65 %
09.08.2021 04:50 14,2 C 13,9 C 12,3 C 90 % 1015,1 hPa 0,0 l/m 0 min 0 min 0 W/m 6,4 km/h (2 Bft) 97,87 %
09.08.2021 04:52 14,2 C 13,9 C 12,3 C 90 % 1015,1 hPa 0,0 l/m 0 min 0 min 0 W/m 3,2 km/h (1 Bft) 97,87 %
09.08.2021 04:54 14,3 C 13,9 C 12,3 C 90 % 1015,1 hPa 0,0 l/m 0 min 0 min 0 W/m 6,4 km/h (2 Bft) 93,62 %
09.08.2021 04:56 14,3 C 13,9 C 12,3 C 90 % 1015,1 hPa 0,0 l/m 0 min 0 min 0 W/m 3,2 km/h (1 Bft) 97,87 %
09.08.2021 04:58 14,3 C 13,9 C 12,3 C 90 % 1015,1 hPa 0,0 l/m 0 min 0 min 0 W/m 6,4 km/h (2 Bft) 97,87 %
09.08.2021 05:00 14,3 C 13,9 C 12,3 C 90 % 1015,1 hPa 0,0 l/m 0 min 0 min 0 W/m 3,2 km/h (1 Bft) 97,83 %
09.08.2021 05:02 14,3 C 13,9 C 12,3 C 90 % 1015,1 hPa 0,0 l/m 0 min 0 min 0 W/m 3,2 km/h (1 Bft) 95,74 %
09.08.2021 05:04 14,3 C 13,9 C 12,3 C 90 % 1015,2 hPa 0,0 l/m 0 min 0 min 0 W/m 6,4 km/h (2 Bft) 97,87 %
09.08.2021 05:06 14,4 C 13,9 C 12,3 C 90 % 1015,1 hPa 0,0 l/m 0 min 0 min 0 W/m 6,4 km/h (2 Bft) 97,87 %
09.08.2021 05:08 14,4 C 13,9 C 12,3 C 90 % 1015,1 hPa 0,0 l/m 0 min 0 min 0 W/m 6,4 km/h (2 Bft) 97,87 %
09.08.2021 05:10 14,4 C 13,9 C 12,3 C 90 % 1015,1 hPa 0,0 l/m 0 min 0 min 0 W/m 3,2 km/h (1 Bft) 95,74 %
09.08.2021 05:12 14,4 C 13,9 C 12,3 C 90 % 1015,1 hPa 0,0 l/m 0 min 0 min 0 W/m 3,2 km/h (1 Bft) 97,83 %
09.08.2021 05:14 14,4 C 13,9 C 12,3 C 90 % 1015,1 hPa 0,0 l/m 0 min 0 min 0 W/m 3,2 km/h (1 Bft) 97,87 %
09.08.2021 05:16 14,4 C 13,9 C 12,3 C 90 % 1015,1 hPa 0,0 l/m 0 min 0 min 0 W/m 3,2 km/h (1 Bft) 95,74 %
09.08.2021 05:18 14,4 C 13,9 C 12,3 C 90 % 1015,2 hPa 0,0 l/m 0 min 0 min 0 W/m 6,4 km/h (2 Bft) 95,74 %
09.08.2021 05:20 14,4 C 13,9 C 12,3 C 90 % 1015,2 hPa 0,0 l/m 0 min 0 min 0 W/m 6,4 km/h (2 Bft) 95,74 %
09.08.2021 05:22 14,4 C 13,9 C 12,3 C 90 % 1015,2 hPa 0,0 l/m 0 min 0 min 0 W/m 3,2 km/h (1 Bft) 95,74 %
09.08.2021 05:24 14,4 C 13,9 C 12,3 C 90 % 1015,2 hPa 0,0 l/m 0 min 0 min 0 W/m 6,4 km/h (2 Bft) 95,65 %
09.08.2021 05:26 14,4 C 13,9 C 12,3 C 90 % 1015,2 hPa 0,0 l/m 0 min 0 min 0 W/m 6,4 km/h (2 Bft) 95,74 %
09.08.2021 05:28 14,4 C 13,9 C 12,3 C 90 % 1015,2 hPa 0,0 l/m 0 min 0 min 0 W/m 6,4 km/h (2 Bft) 95,74 %
09.08.2021 05:30 14,4 C 13,9 C 12,3 C 90 % 1015,2 hPa 0,0 l/m 0 min 0 min 0 W/m 6,4 km/h (2 Bft) 95,74 %
09.08.2021 05:32 14,4 C 13,9 C 12,3 C 90 % 1015,2 hPa 0,0 l/m 0 min 0 min 0 W/m 3,2 km/h (1 Bft) 97,87 %
09.08.2021 05:34 14,4 C 13,9 C 12,3 C 90 % 1015,3 hPa 0,0 l/m 0 min 0 min 0 W/m 3,2 km/h (1 Bft) 97,87 %
09.08.2021 05:36 14,4 C 13,9 C 12,3 C 90 % 1015,3 hPa 0,0 l/m 0 min 0 min 0 W/m 3,2 km/h (1 Bft) 97,83 %
09.08.2021 05:38 14,4 C 13,9 C 12,3 C 90 % 1015,2 hPa 0,0 l/m 0 min 0 min 0 W/m 3,2 km/h (1 Bft) 97,87 %
09.08.2021 05:40 14,5 C 13,9 C 12,3 C 90 % 1015,3 hPa 0,0 l/m 0 min 0 min 0 W/m 3,2 km/h (1 Bft) 97,87 %
09.08.2021 05:42 14,4 C 13,9 C 12,3 C 90 % 1015,3 hPa 0,0 l/m 0 min 0 min 0 W/m 3,2 km/h (1 Bft) 95,74 %
09.08.2021 05:44 14,5 C 13,9 C 12,3 C 90 % 1015,3 hPa 0,0 l/m 0 min 0 min 0 W/m 6,4 km/h (2 Bft) 97,87 %
09.08.2021 05:46 14,5 C 13,9 C 12,3 C 90 % 1015,3 hPa 0,0 l/m 0 min 0 min 0 W/m 9,7 km/h (2 Bft) 97,87 %
09.08.2021 05:48 14,5 C 13,9 C 12,3 C 90 % 1015,3 hPa 0,0 l/m 0 min 0 min 0 W/m 6,4 km/h (2 Bft) 97,83 %
09.08.2021 05:50 14,5 C 13,9 C 12,8 C 90 % 1015,3 hPa 0,0 l/m 0 min 0 min 0 W/m 6,4 km/h (2 Bft) 97,87 %
09.08.2021 05:52 14,5 C 13,9 C 12,3 C 90 % 1015,3 hPa 0,0 l/m 0 min 0 min 0 W/m 6,4 km/h (2 Bft) 100,00 %
09.08.2021 05:54 14,5 C 13,9 C 12,3 C 90 % 1015,4 hPa 0,0 l/m 0 min 0 min 0 W/m 6,4 km/h (2 Bft) 100,00 %
09.08.2021 05:56 14,5 C 13,9 C 12,8 C 90 % 1015,4 hPa 0,0 l/m 0 min 0 min 0 W/m 3,2 km/h (1 Bft) 100,00 %
09.08.2021 05:58 14,5 C 13,9 C 12,8 C 90 % 1015,3 hPa 0,0 l/m 0 min 0 min 0 W/m 3,2 km/h (1 Bft) 100,00 %
09.08.2021 06:00 14,5 C 13,9 C 12,8 C 90 % 1015,3 hPa 0,0 l/m 0 min 0 min 0 W/m 6,4 km/h (2 Bft) 100,00 %
09.08.2021 06:02 14,5 C 13,9 C 12,8 C 90 % 1015,4 hPa 0,0 l/m 0 min 0 min 0 W/m 3,2 km/h (1 Bft) 100,00 %
09.08.2021 06:04 14,5 C 13,9 C 12,3 C 90 % 1015,3 hPa 0,0 l/m 0 min 0 min 0 W/m 6,4 km/h (2 Bft) 100,00 %
09.08.2021 06:08 14,5 C 13,9 C 12,3 C 90 % 1015,2 hPa 0,0 l/m 0 min 0 min 0 W/m 6,4 km/h (2 Bft) 100,00 %
09.08.2021 06:10 14,5 C 13,9 C 12,3 C 90 % 1015,2 hPa 0,0 l/m 0 min 0 min 0 W/m 3,2 km/h (1 Bft) 100,00 %
09.08.2021 06:12 14,5 C 13,9 C 12,3 C 90 % 1015,2 hPa 0,0 l/m 0 min 0 min 0 W/m 6,4 km/h (2 Bft) 100,00 %
09.08.2021 06:14 14,5 C 13,9 C 12,3 C 90 % 1015,1 hPa 0,0 l/m 0 min 0 min 0 W/m 6,4 km/h (2 Bft) 100,00 %
09.08.2021 06:16 14,5 C 13,9 C 12,3 C 90 % 1015,1 hPa 0,0 l/m 0 min 0 min 0 W/m 6,4 km/h (2 Bft) 100,00 %
09.08.2021 06:18 14,5 C 13,9 C 12,3 C 90 % 1015,1 hPa 0,0 l/m 0 min 0 min 0 W/m 6,4 km/h (2 Bft) 97,87 %
09.08.2021 06:20 14,5 C 13,9 C 12,3 C 90 % 1015,1 hPa 0,0 l/m 0 min 0 min 0 W/m 6,4 km/h (2 Bft) 100,00 %
09.08.2021 06:22 14,5 C 13,9 C 12,3 C 90 % 1015,1 hPa 0,0 l/m 0 min 0 min 0 W/m 6,4 km/h (2 Bft) 100,00 %
09.08.2021 06:24 14,5 C 13,9 C 12,3 C 90 % 1015,1 hPa 0,0 l/m 0 min 0 min 0 W/m 6,4 km/h (2 Bft) 100,00 %
09.08.2021 06:26 14,5 C 13,9 C 12,3 C 90 % 1015,1 hPa 0,0 l/m 0 min 0 min 0 W/m 12,9 km/h (3 Bft) 100,00 %
09.08.2021 06:28 14,5 C 13,3 C 12,3 C 90 % 1015,2 hPa 0,0 l/m 0 min 0 min 1 W/m 12,9 km/h (3 Bft) 100,00 %
09.08.2021 06:30 14,4 C 13,3 C 12,3 C 90 % 1015,2 hPa 0,0 l/m 0 min 0 min 5 W/m 12,9 km/h (3 Bft) 100,00 %
09.08.2021 06:32 14,4 C 13,3 C 12,3 C 90 % 1015,2 hPa 0,0 l/m 0 min 0 min 5 W/m 6,4 km/h (2 Bft) 100,00 %
09.08.2021 06:34 14,4 C 13,3 C 12,3 C 90 % 1015,3 hPa 0,0 l/m 0 min 0 min 5 W/m 6,4 km/h (2 Bft) 100,00 %
09.08.2021 06:36 14,4 C 13,3 C 12,3 C 90 % 1015,3 hPa 0,0 l/m 0 min 0 min 6 W/m 6,4 km/h (2 Bft) 100,00 %
09.08.2021 06:38 14,4 C 13,3 C 12,3 C 90 % 1015,3 hPa 0,0 l/m 0 min 0 min 7 W/m 12,9 km/h (3 Bft) 100,00 %
09.08.2021 06:40 14,4 C 13,3 C 12,3 C 90 % 1015,3 hPa 0,0 l/m 0 min 0 min 9 W/m 3,2 km/h (1 Bft) 100,00 %
09.08.2021 06:42 14,3 C 13,3 C 12,3 C 90 % 1015,2 hPa 0,0 l/m 0 min 0 min 11 W/m 6,4 km/h (2 Bft) 100,00 %
09.08.2021 06:44 14,3 C 13,3 C 12,3 C 90 % 1015,3 hPa 0,0 l/m 0 min 0 min 12 W/m 6,4 km/h (2 Bft) 100,00 %
09.08.2021 06:46 14,3 C 13,3 C 12,3 C 90 % 1015,3 hPa 0,0 l/m 0 min 0 min 14 W/m 6,4 km/h (2 Bft) 100,00 %
09.08.2021 06:48 14,3 C 13,3 C 12,3 C 91 % 1015,4 hPa 0,0 l/m 0 min 0 min 14 W/m 6,4 km/h (2 Bft) 97,87 %
09.08.2021 06:50 14,3 C 13,3 C 12,3 C 91 % 1015,4 hPa 0,0 l/m 0 min 0 min 14 W/m 3,2 km/h (1 Bft) 97,87 %
09.08.2021 06:52 14,2 C 13,3 C 12,3 C 91 % 1015,4 hPa 0,0 l/m 0 min 0 min 12 W/m 3,2 km/h (1 Bft) 97,87 %
09.08.2021 06:54 14,2 C 13,3 C 12,3 C 91 % 1015,4 hPa 0,0 l/m 0 min 0 min 14 W/m 6,4 km/h (2 Bft) 100,00 %
09.08.2021 06:56 14,2 C 13,3 C 12,3 C 91 % 1015,3 hPa 0,0 l/m 0 min 0 min 14 W/m 6,4 km/h (2 Bft) 100,00 %
09.08.2021 06:58 14,2 C 13,3 C 12,3 C 91 % 1015,4 hPa 0,0 l/m 0 min 0 min 15 W/m 6,4 km/h (2 Bft) 95,65 %
09.08.2021 07:00 14,2 C 13,3 C 12,3 C 91 % 1015,4 hPa 0,0 l/m 0 min 0 min 16 W/m 6,4 km/h (2 Bft) 97,87 %
09.08.2021 07:02 14,2 C 13,3 C 12,3 C 91 % 1015,4 hPa 0,0 l/m 0 min 0 min 17 W/m 6,4 km/h (2 Bft) 96,00 %
09.08.2021 07:04 14,2 C 13,3 C 12,3 C 91 % 1015,4 hPa 0,0 l/m 0 min 0 min 18 W/m 3,2 km/h (1 Bft) 97,87 %
09.08.2021 07:06 14,2 C 13,3 C 12,3 C 91 % 1015,4 hPa 0,0 l/m 0 min 0 min 19 W/m 6,4 km/h (2 Bft) 97,87 %
09.08.2021 07:08 14,2 C 13,3 C 12,3 C 91 % 1015,4 hPa 0,0 l/m 0 min 0 min 20 W/m 6,4 km/h (2 Bft) 97,87 %
09.08.2021 07:10 14,2 C 13,3 C 12,3 C 91 % 1015,5 hPa 0,0 l/m 0 min 0 min 21 W/m 6,4 km/h (2 Bft) 97,83 %
09.08.2021 07:12 14,2 C 13,3 C 12,3 C 91 % 1015,5 hPa 0,0 l/m 0 min 0 min 23 W/m 6,4 km/h (2 Bft) 93,62 %
09.08.2021 07:14 14,2 C 13,3 C 12,3 C 91 % 1015,5 hPa 0,0 l/m 0 min 0 min 23 W/m 6,4 km/h (2 Bft) 91,49 %
09.08.2021 07:16 14,2 C 13,9 C 12,3 C 91 % 1015,5 hPa 0,0 l/m 0 min 0 min 23 W/m 6,4 km/h (2 Bft) 93,62 %
09.08.2021 07:18 14,2 C 13,9 C 12,3 C 91 % 1015,5 hPa 0,0 l/m 0 min 0 min 23 W/m 6,4 km/h (2 Bft) 95,74 %
09.08.2021 07:20 14,2 C 13,9 C 12,3 C 92 % 1015,5 hPa 0,0 l/m 0 min 0 min 25 W/m 6,4 km/h (2 Bft) 93,48 %
09.08.2021 07:22 14,2 C 13,9 C 12,3 C 92 % 1015,5 hPa 0,0 l/m 0 min 0 min 28 W/m 6,4 km/h (2 Bft) 93,62 %
09.08.2021 07:24 14,2 C 13,9 C 12,3 C 92 % 1015,5 hPa 0,0 l/m 0 min 0 min 31 W/m 6,4 km/h (2 Bft) 95,74 %
09.08.2021 07:26 14,2 C 13,9 C 12,3 C 92 % 1015,5 hPa 0,0 l/m 0 min 0 min 33 W/m 3,2 km/h (1 Bft) 95,74 %
09.08.2021 07:28 14,2 C 13,9 C 12,3 C 92 % 1015,5 hPa 0,0 l/m 0 min 2 min 33 W/m 6,4 km/h (2 Bft) 91,49 %
09.08.2021 07:30 14,2 C 13,9 C 12,3 C 92 % 1015,5 hPa 0,0 l/m 0 min 0 min 32 W/m 6,4 km/h (2 Bft) 93,62 %
09.08.2021 07:32 14,2 C 13,9 C 12,3 C 92 % 1015,5 hPa 0,0 l/m 0 min 0 min 32 W/m 6,4 km/h (2 Bft) 91,30 %
09.08.2021 07:34 14,2 C 13,9 C 12,3 C 92 % 1015,5 hPa 0,0 l/m 0 min 0 min 34 W/m 3,2 km/h (1 Bft) 93,62 %
09.08.2021 07:36 14,2 C 13,9 C 12,3 C 92 % 1015,5 hPa 0,0 l/m 0 min 0 min 38 W/m 6,4 km/h (2 Bft) 93,62 %
09.08.2021 07:38 14,2 C 13,9 C 12,3 C 92 % 1015,5 hPa 0,0 l/m 0 min 0 min 41 W/m 6,4 km/h (2 Bft) 93,62 %
09.08.2021 07:40 14,2 C 13,9 C 12,3 C 92 % 1015,5 hPa 0,0 l/m 0 min 0 min 41 W/m 6,4 km/h (2 Bft) 93,62 %
09.08.2021 07:42 14,3 C 13,9 C 12,3 C 92 % 1015,5 hPa 0,0 l/m 0 min 0 min 40 W/m 3,2 km/h (1 Bft) 93,62 %
09.08.2021 07:44 14,3 C 13,9 C 12,3 C 92 % 1015,4 hPa 0,0 l/m 0 min 0 min 36 W/m 3,2 km/h (1 Bft) 95,65 %
09.08.2021 07:46 14,3 C 13,9 C 12,3 C 92 % 1015,5 hPa 0,0 l/m 0 min 0 min 32 W/m 3,2 km/h (1 Bft) 100,00 %
09.08.2021 07:48 14,3 C 13,9 C 12,3 C 92 % 1015,5 hPa 0,0 l/m 0 min 0 min 27 W/m 3,2 km/h (1 Bft) 95,74 %
09.08.2021 07:50 14,3 C 13,9 C 12,3 C 92 % 1015,5 hPa 0,0 l/m 0 min 0 min 25 W/m 3,2 km/h (1 Bft) 95,74 %
09.08.2021 07:52 14,3 C 13,9 C 12,3 C 92 % 1015,5 hPa 0,0 l/m 0 min 0 min 23 W/m 6,4 km/h (2 Bft) 95,74 %
09.08.2021 07:54 14,4 C 13,9 C 12,8 C 92 % 1015,5 hPa 0,0 l/m 0 min 0 min 23 W/m 3,2 km/h (1 Bft) 97,87 %
09.08.2021 07:56 14,4 C 13,9 C 12,8 C 92 % 1015,5 hPa 0,0 l/m 0 min 0 min 25 W/m 6,4 km/h (2 Bft) 95,65 %
09.08.2021 07:58 14,4 C 13,9 C 12,8 C 92 % 1015,4 hPa 0,0 l/m 0 min 0 min 25 W/m 3,2 km/h (1 Bft) 95,74 %
09.08.2021 08:00 14,4 C 13,9 C 12,8 C 92 % 1015,5 hPa 0,0 l/m 0 min 0 min 26 W/m 3,2 km/h (1 Bft) 97,87 %
09.08.2021 08:02 14,4 C 13,9 C 12,8 C 92 % 1015,5 hPa 0,0 l/m 0 min 0 min 27 W/m 9,7 km/h (2 Bft) 93,62 %
09.08.2021 08:04 14,4 C 13,9 C 12,8 C 92 % 1015,5 hPa 0,0 l/m 0 min 0 min 28 W/m 6,4 km/h (2 Bft) 97,87 %
09.08.2021 08:06 14,4 C 13,9 C 12,8 C 92 % 1015,5 hPa 0,0 l/m 0 min 0 min 28 W/m 12,9 km/h (3 Bft) 97,87 %
09.08.2021 08:08 14,4 C 13,9 C 12,8 C 92 % 1015,5 hPa 0,0 l/m 0 min 0 min 28 W/m 6,4 km/h (2 Bft) 95,65 %
09.08.2021 08:10 14,4 C 13,9 C 12,8 C 92 % 1015,6 hPa 0,0 l/m 0 min 0 min 29 W/m 12,9 km/h (3 Bft) 100,00 %
09.08.2021 08:12 14,4 C 13,9 C 12,8 C 92 % 1015,6 hPa 0,0 l/m 0 min 0 min 30 W/m 6,4 km/h (2 Bft) 100,00 %
09.08.2021 08:14 14,4 C 13,9 C 12,8 C 92 % 1015,6 hPa 0,0 l/m 0 min 0 min 30 W/m 6,4 km/h (2 Bft) 100,00 %
09.08.2021 08:16 14,5 C 13,9 C 12,8 C 92 % 1015,6 hPa 0,0 l/m 0 min 0 min 28 W/m 6,4 km/h (2 Bft) 100,00 %
09.08.2021 08:18 14,5 C 13,9 C 12,8 C 92 % 1015,6 hPa 0,0 l/m 0 min 0 min 28 W/m 3,2 km/h (1 Bft) 100,00 %
09.08.2021 08:20 14,5 C 13,9 C 12,8 C 92 % 1015,6 hPa 0,0 l/m 0 min 0 min 31 W/m 3,2 km/h (1 Bft) 100,00 %
09.08.2021 08:22 14,5 C 13,9 C 12,8 C 92 % 1015,7 hPa 0,0 l/m 0 min 0 min 33 W/m 6,4 km/h (2 Bft) 100,00 %
09.08.2021 08:24 14,5 C 13,9 C 12,8 C 92 % 1015,7 hPa 0,0 l/m 0 min 2 min 37 W/m 9,7 km/h (2 Bft) 100,00 %
09.08.2021 08:26 14,5 C 13,9 C 12,8 C 92 % 1015,7 hPa 0,0 l/m 0 min 2 min 46 W/m 6,4 km/h (2 Bft) 100,00 %
09.08.2021 08:28 14,5 C 13,9 C 12,8 C 92 % 1015,7 hPa 0,0 l/m 0 min 2 min 57 W/m 3,2 km/h (1 Bft) 100,00 %
09.08.2021 08:30 14,5 C 13,9 C 12,8 C 92 % 1015,8 hPa 0,0 l/m 0 min 0 min 65 W/m 12,9 km/h (3 Bft) 97,87 %
09.08.2021 08:32 14,6 C 14,4 C 12,8 C 92 % 1015,8 hPa 0,0 l/m 0 min 0 min 71 W/m 3,2 km/h (1 Bft) 100,00 %
09.08.2021 08:34 14,6 C 14,4 C 12,8 C 92 % 1015,8 hPa 0,0 l/m 0 min 0 min 78 W/m 6,4 km/h (2 Bft) 100,00 %
09.08.2021 08:36 14,6 C 14,4 C 12,8 C 93 % 1015,8 hPa 0,0 l/m 0 min 0 min 84 W/m 6,4 km/h (2 Bft) 100,00 %
09.08.2021 08:38 14,6 C 14,4 C 12,8 C 93 % 1015,8 hPa 0,0 l/m 0 min 0 min 87 W/m 6,4 km/h (2 Bft) 100,00 %
09.08.2021 08:40 14,6 C 14,4 C 12,8 C 93 % 1015,8 hPa 0,0 l/m 0 min 0 min 88 W/m 6,4 km/h (2 Bft) 100,00 %
09.08.2021 08:42 14,6 C 14,4 C 12,8 C 93 % 1015,8 hPa 0,0 l/m 0 min 0 min 89 W/m 6,4 km/h (2 Bft) 100,00 %
09.08.2021 08:44 14,7 C 14,4 C 13,4 C 93 % 1015,8 hPa 0,0 l/m 0 min 0 min 91 W/m 6,4 km/h (2 Bft) 97,87 %
09.08.2021 08:46 14,8 C 14,4 C 13,4 C 93 % 1015,8 hPa 0,0 l/m 0 min 0 min 97 W/m 6,4 km/h (2 Bft) 100,00 %
09.08.2021 08:48 14,8 C 14,4 C 13,4 C 93 % 1015,8 hPa 0,0 l/m 0 min 0 min 106 W/m 6,4 km/h (2 Bft) 100,00 %
09.08.2021 08:50 14,8 C 14,4 C 13,4 C 93 % 1015,8 hPa 0,0 l/m 0 min 0 min 116 W/m 6,4 km/h (2 Bft) 100,00 %
09.08.2021 08:52 14,8 C 15,0 C 13,4 C 93 % 1015,8 hPa 0,0 l/m 0 min 0 min 126 W/m 3,2 km/h (1 Bft) 100,00 %
09.08.2021 08:54 14,9 C 15,0 C 13,4 C 93 % 1015,8 hPa 0,0 l/m 0 min 0 min 133 W/m 6,4 km/h (2 Bft) 100,00 %
09.08.2021 08:56 14,9 C 15,0 C 13,4 C 93 % 1015,9 hPa 0,0 l/m 0 min 0 min 136 W/m 3,2 km/h (1 Bft) 97,87 %
09.08.2021 08:58 14,9 C 15,0 C 13,9 C 93 % 1015,8 hPa 0,0 l/m 0 min 0 min 140 W/m 3,2 km/h (1 Bft) 97,87 %
09.08.2021 09:00 14,9 C 15,0 C 13,9 C 93 % 1015,8 hPa 0,0 l/m 0 min 0 min 148 W/m 3,2 km/h (1 Bft) 100,00 %
09.08.2021 09:02 15,0 C 15,6 C 13,9 C 93 % 1015,9 hPa 0,0 l/m 0 min 0 min 173 W/m 3,2 km/h (1 Bft) 100,00 %
09.08.2021 09:04 15,0 C 16,1 C 14,5 C 93 % 1015,8 hPa 0,0 l/m 2 min 0 min 279 W/m 12,9 km/h (3 Bft) 100,00 %
09.08.2021 09:06 15,1 C 16,1 C 14,5 C 93 % 1015,8 hPa 0,0 l/m 2 min 0 min 236 W/m 12,9 km/h (3 Bft) 100,00 %
09.08.2021 09:08 15,2 C 16,7 C 14,5 C 93 % 1015,8 hPa 0,0 l/m 2 min 0 min 259 W/m 12,9 km/h (3 Bft) 97,87 %
09.08.2021 09:10 15,3 C 17,2 C 15,0 C 93 % 1015,8 hPa 0,0 l/m 2 min 0 min 391 W/m 12,9 km/h (3 Bft) 97,87 %
09.08.2021 09:12 15,4 C 17,2 C 15,0 C 93 % 1015,8 hPa 0,0 l/m 2 min 0 min 266 W/m 6,4 km/h (2 Bft) 95,74 %
09.08.2021 09:14 15,5 C 17,2 C 15,0 C 93 % 1015,8 hPa 0,0 l/m 0 min 0 min 160 W/m 6,4 km/h (2 Bft) 95,74 %
09.08.2021 09:16 15,5 C 16,7 C 15,0 C 92 % 1015,8 hPa 0,0 l/m 0 min 0 min 133 W/m 9,7 km/h (2 Bft) 95,74 %
09.08.2021 09:18 15,6 C 16,7 C 15,0 C 92 % 1015,8 hPa 0,0 l/m 0 min 0 min 129 W/m 12,9 km/h (3 Bft) 97,83 %
09.08.2021 09:20 15,6 C 16,1 C 15,0 C 91 % 1015,8 hPa 0,0 l/m 0 min 0 min 145 W/m 6,4 km/h (2 Bft) 97,87 %
09.08.2021 09:22 15,7 C 16,1 C 15,0 C 91 % 1015,8 hPa 0,0 l/m 0 min 0 min 168 W/m 6,4 km/h (2 Bft) 97,87 %
09.08.2021 09:24 15,8 C 16,7 C 15,0 C 91 % 1015,8 hPa 0,0 l/m 0 min 0 min 192 W/m 3,2 km/h (1 Bft) 97,87 %
09.08.2021 09:26 15,9 C 17,2 C 15,6 C 91 % 1015,8 hPa 0,0 l/m 2 min 0 min 263 W/m 12,9 km/h (3 Bft) 97,87 %
09.08.2021 09:28 15,9 C 18,3 C 15,6 C 91 % 1015,8 hPa 0,0 l/m 2 min 0 min 448 W/m 12,9 km/h (3 Bft) 93,62 %
09.08.2021 09:30 16,0 C 18,9 C 16,1 C 90 % 1015,8 hPa 0,0 l/m 2 min 0 min 475 W/m 6,4 km/h (2 Bft) 91,30 %
09.08.2021 09:32 16,2 C 18,9 C 16,7 C 90 % 1015,8 hPa 0,0 l/m 2 min 0 min 329 W/m 6,4 km/h (2 Bft) 85,11 %
09.08.2021 09:34 16,3 C 19,4 C 16,7 C 90 % 1015,8 hPa 0,0 l/m 2 min 0 min 448 W/m 12,9 km/h (3 Bft) 95,74 %
09.08.2021 09:36 16,4 C 20,0 C 17,8 C 90 % 1015,9 hPa 0,0 l/m 2 min 0 min 609 W/m 12,9 km/h (3 Bft) 85,11 %
09.08.2021 09:38 16,6 C 20,0 C 17,8 C 89 % 1015,9 hPa 0,0 l/m 2 min 0 min 628 W/m 12,9 km/h (3 Bft) 95,74 %
09.08.2021 09:40 16,8 C 20,0 C 17,8 C 88 % 1015,9 hPa 0,0 l/m 2 min 0 min 522 W/m 6,4 km/h (2 Bft) 97,87 %
09.08.2021 09:42 16,9 C 20,0 C 17,8 C 88 % 1015,9 hPa 0,0 l/m 2 min 0 min 366 W/m 12,9 km/h (3 Bft) 95,65 %
09.08.2021 09:44 17,0 C 19,4 C 17,8 C 87 % 1015,9 hPa 0,0 l/m 2 min 0 min 324 W/m 9,7 km/h (2 Bft) 97,87 %
09.08.2021 09:46 17,2 C 19,4 C 17,3 C 87 % 1015,9 hPa 0,0 l/m 2 min 0 min 316 W/m 12,9 km/h (3 Bft) 95,74 %
09.08.2021 09:48 17,3 C 18,9 C 17,3 C 86 % 1015,9 hPa 0,0 l/m 2 min 0 min 343 W/m 12,9 km/h (3 Bft) 97,87 %
09.08.2021 09:50 17,4 C 19,4 C 17,3 C 86 % 1015,8 hPa 0,0 l/m 2 min 0 min 364 W/m 12,9 km/h (3 Bft) 93,62 %
09.08.2021 09:52 17,5 C 20,0 C 17,8 C 85 % 1015,8 hPa 0,0 l/m 2 min 0 min 406 W/m 9,7 km/h (2 Bft) 97,87 %
09.08.2021 09:54 17,6 C 20,0 C 17,3 C 85 % 1015,8 hPa 0,0 l/m 2 min 0 min 419 W/m 12,9 km/h (3 Bft) 97,83 %
09.08.2021 09:56 17,8 C 20,0 C 17,3 C 84 % 1015,8 hPa 0,0 l/m 2 min 0 min 315 W/m 12,9 km/h (3 Bft) 97,87 %
09.08.2021 09:58 17,9 C 19,4 C 17,3 C 83 % 1015,8 hPa 0,0 l/m 0 min 0 min 231 W/m 19,3 km/h (3 Bft) 97,87 %
09.08.2021 10:00 17,9 C 19,4 C 17,3 C 83 % 1015,8 hPa 0,0 l/m 0 min 0 min 216 W/m 9,7 km/h (2 Bft) 93,62 %
09.08.2021 10:02 18,0 C 18,9 C 17,3 C 82 % 1015,9 hPa 0,0 l/m 0 min 0 min 215 W/m 16,1 km/h (3 Bft) 97,87 %
09.08.2021 10:04 18,0 C 18,9 C 17,3 C 81 % 1015,9 hPa 0,0 l/m 0 min 0 min 246 W/m 6,4 km/h (2 Bft) 97,87 %
09.08.2021 10:06 18,0 C 19,4 C 17,3 C 81 % 1015,8 hPa 0,0 l/m 2 min 0 min 371 W/m 19,3 km/h (3 Bft) 97,83 %
09.08.2021 10:08 18,1 C 19,4 C 17,3 C 80 % 1015,9 hPa 0,0 l/m 2 min 0 min 386 W/m 16,1 km/h (3 Bft) 93,62 %
09.08.2021 10:10 18,1 C 19,4 C 17,3 C 79 % 1015,8 hPa 0,0 l/m 2 min 0 min 323 W/m 12,9 km/h (3 Bft) 95,74 %
09.08.2021 10:12 18,1 C 19,4 C 17,3 C 79 % 1015,8 hPa 0,0 l/m 2 min 0 min 315 W/m 12,9 km/h (3 Bft) 97,87 %
09.08.2021 10:14 18,3 C 19,4 C 17,3 C 79 % 1015,8 hPa 0,0 l/m 2 min 0 min 313 W/m 19,3 km/h (3 Bft) 95,74 %
09.08.2021 10:16 18,3 C 19,4 C 17,3 C 79 % 1015,9 hPa 0,0 l/m 2 min 0 min 364 W/m 12,9 km/h (3 Bft) 95,74 %
09.08.2021 10:18 18,3 C 20,0 C 17,3 C 79 % 1015,9 hPa 0,0 l/m 2 min 0 min 351 W/m 12,9 km/h (3 Bft) 97,83 %
09.08.2021 10:20 18,4 C 20,0 C 17,3 C 79 % 1015,9 hPa 0,0 l/m 2 min 0 min 316 W/m 12,9 km/h (3 Bft) 97,87 %
09.08.2021 10:22 18,5 C 19,4 C 17,3 C 79 % 1015,8 hPa 0,0 l/m 2 min 0 min 305 W/m 9,7 km/h (2 Bft) 97,87 %
09.08.2021 10:24 18,5 C 19,4 C 17,3 C 79 % 1015,8 hPa 0,0 l/m 0 min 0 min 284 W/m 12,9 km/h (3 Bft) 100,00 %
09.08.2021 10:26 18,5 C 19,4 C 17,3 C 79 % 1015,9 hPa 0,0 l/m 0 min 0 min 267 W/m 12,9 km/h (3 Bft) 93,62 %
09.08.2021 10:28 18,6 C 20,0 C 17,3 C 79 % 1015,9 hPa 0,0 l/m 0 min 0 min 281 W/m 12,9 km/h (3 Bft) 97,87 %
09.08.2021 10:30 18,6 C 20,6 C 17,3 C 77 % 1015,9 hPa 0,0 l/m 2 min 0 min 348 W/m 16,1 km/h (3 Bft) 97,83 %
09.08.2021 10:32 18,6 C 21,1 C 17,3 C 77 % 1015,9 hPa 0,0 l/m 2 min 0 min 607 W/m 25,7 km/h (4 Bft) 97,87 %
09.08.2021 10:34 18,7 C 21,1 C 17,3 C 77 % 1015,8 hPa 0,0 l/m 2 min 0 min 596 W/m 32,2 km/h (5 Bft) 95,74 %
09.08.2021 10:36 18,8 C 21,1 C 17,3 C 76 % 1015,9 hPa 0,0 l/m 2 min 0 min 384 W/m 25,7 km/h (4 Bft) 97,87 %
09.08.2021 10:38 18,8 C 20,6 C 17,8 C 76 % 1015,9 hPa 0,0 l/m 2 min 0 min 546 W/m 19,3 km/h (3 Bft) 97,87 %
09.08.2021 10:40 18,9 C 20,6 C 17,8 C 77 % 1015,9 hPa 0,0 l/m 2 min 0 min 545 W/m 16,1 km/h (3 Bft) 97,87 %
09.08.2021 10:42 18,9 C 20,6 C 18,4 C 77 % 1015,9 hPa 0,0 l/m 2 min 0 min 405 W/m 22,5 km/h (4 Bft) 97,83 %
09.08.2021 10:44 18,9 C 20,0 C 18,4 C 76 % 1015,9 hPa 0,0 l/m 2 min 0 min 385 W/m 22,5 km/h (4 Bft) 95,74 %
09.08.2021 10:46 19,0 C 20,0 C 18,9 C 77 % 1015,9 hPa 0,0 l/m 2 min 0 min 440 W/m 19,3 km/h (3 Bft) 97,87 %
09.08.2021 10:48 19,0 C 20,0 C 18,9 C 76 % 1015,9 hPa 0,0 l/m 2 min 0 min 589 W/m 19,3 km/h (3 Bft) 97,87 %
09.08.2021 10:50 19,1 C 20,0 C 18,9 C 76 % 1015,9 hPa 0,0 l/m 2 min 0 min 530 W/m 12,9 km/h (3 Bft) 97,87 %
09.08.2021 10:52 19,2 C 20,6 C 18,9 C 76 % 1015,9 hPa 0,0 l/m 2 min 0 min 340 W/m 12,9 km/h (3 Bft) 97,87 %
09.08.2021 10:54 19,3 C 20,6 C 18,9 C 75 % 1015,9 hPa 0,0 l/m 2 min 0 min 449 W/m 19,3 km/h (3 Bft) 97,83 %
09.08.2021 10:56 19,4 C 20,6 C 20,0 C 75 % 1015,9 hPa 0,0 l/m 2 min 0 min 643 W/m 22,5 km/h (4 Bft) 97,87 %
09.08.2021 10:58 19,5 C 20,6 C 21,1 C 75 % 1015,9 hPa 0,0 l/m 2 min 0 min 669 W/m 19,3 km/h (3 Bft) 97,87 %
09.08.2021 11:00 19,5 C 20,6 C 21,1 C 75 % 1015,8 hPa 0,0 l/m 2 min 0 min 675 W/m 16,1 km/h (3 Bft) 95,74 %
09.08.2021 11:02 19,6 C 21,1 C 20,6 C 75 % 1015,8 hPa 0,0 l/m 2 min 0 min 737 W/m 6,4 km/h (2 Bft) 95,74 %
09.08.2021 11:04 19,8 C 21,1 C 20,0 C 74 % 1015,9 hPa 0,0 l/m 2 min 0 min 787 W/m 19,3 km/h (3 Bft) 97,87 %
09.08.2021 11:06 19,9 C 20,6 C 20,0 C 74 % 1015,8 hPa 0,0 l/m 2 min 0 min 795 W/m 22,5 km/h (4 Bft) 97,83 %
09.08.2021 11:08 19,9 C 20,6 C 19,5 C 73 % 1015,9 hPa 0,0 l/m 2 min 0 min 351 W/m 16,1 km/h (3 Bft) 97,87 %
09.08.2021 11:10 19,9 C 20,6 C 19,5 C 73 % 1015,8 hPa 0,0 l/m 2 min 0 min 655 W/m 16,1 km/h (3 Bft) 95,74 %
09.08.2021 11:12 20,0 C 20,6 C 18,9 C 72 % 1015,9 hPa 0,0 l/m 2 min 0 min 487 W/m 35,4 km/h (5 Bft) 97,87 %
09.08.2021 11:14 20,0 C 20,0 C 18,9 C 72 % 1016,0 hPa 0,0 l/m 0 min 0 min 254 W/m 22,5 km/h (4 Bft) 97,87 %
09.08.2021 11:16 19,9 C 20,0 C 18,9 C 72 % 1015,9 hPa 0,0 l/m 2 min 0 min 537 W/m 32,2 km/h (5 Bft) 93,62 %
09.08.2021 11:18 19,9 C 20,0 C 18,9 C 72 % 1015,9 hPa 0,0 l/m 2 min 0 min 722 W/m 12,9 km/h (3 Bft) 95,65 %
09.08.2021 11:20 19,9 C 20,6 C 18,9 C 72 % 1015,9 hPa 0,0 l/m 2 min 0 min 741 W/m 25,7 km/h (4 Bft) 95,74 %
09.08.2021 11:22 20,0 C 21,1 C 18,9 C 72 % 1015,8 hPa 0,0 l/m 2 min 0 min 759 W/m 25,7 km/h (4 Bft) 95,74 %
09.08.2021 11:24 20,2 C 21,1 C 19,5 C 73 % 1015,9 hPa 0,0 l/m 2 min 0 min 708 W/m 19,3 km/h (3 Bft) 95,74 %
09.08.2021 11:26 20,3 C 21,1 C 19,5 C 72 % 1015,8 hPa 0,0 l/m 2 min 0 min 505 W/m 16,1 km/h (3 Bft) 95,74 %
09.08.2021 11:28 20,4 C 21,1 C 18,9 C 71 % 1015,9 hPa 0,0 l/m 0 min 0 min 282 W/m 16,1 km/h (3 Bft) 95,65 %
09.08.2021 11:30 20,4 C 20,6 C 18,9 C 71 % 1015,8 hPa 0,0 l/m 0 min 0 min 261 W/m 22,5 km/h (4 Bft) 95,74 %
09.08.2021 11:32 20,3 C 20,6 C 18,9 C 70 % 1015,9 hPa 0,0 l/m 0 min 0 min 221 W/m 35,4 km/h (5 Bft) 95,74 %
09.08.2021 11:34 20,3 C 20,0 C 18,4 C 70 % 1015,9 hPa 0,0 l/m 0 min 0 min 288 W/m 38,6 km/h (5 Bft) 95,74 %
09.08.2021 11:36 20,1 C 20,0 C 18,4 C 70 % 1015,9 hPa 0,0 l/m 0 min 0 min 299 W/m 29,0 km/h (5 Bft) 95,74 %
09.08.2021 11:38 20,1 C 20,0 C 18,4 C 70 % 1015,9 hPa 0,0 l/m 0 min 0 min 287 W/m 16,1 km/h (3 Bft) 97,87 %
09.08.2021 11:40 20,1 C 20,0 C 18,4 C 71 % 1015,8 hPa 0,0 l/m 0 min 0 min 267 W/m 16,1 km/h (3 Bft) 97,83 %
09.08.2021 11:42 20,1 C 20,0 C 18,4 C 70 % 1015,9 hPa 0,0 l/m 0 min 0 min 298 W/m 25,7 km/h (4 Bft) 97,87 %
09.08.2021 11:44 20,1 C 20,0 C 18,4 C 70 % 1015,9 hPa 0,0 l/m 0 min 0 min 315 W/m 25,7 km/h (4 Bft) 97,87 %
09.08.2021 11:46 20,1 C 20,0 C 18,4 C 70 % 1015,9 hPa 0,0 l/m 0 min 0 min 313 W/m 22,5 km/h (4 Bft) 97,87 %
09.08.2021 11:48 20,0 C 20,0 C 18,4 C 70 % 1015,9 hPa 0,0 l/m 0 min 0 min 305 W/m 32,2 km/h (5 Bft) 95,74 %
09.08.2021 11:50 20,0 C 20,0 C 18,4 C 70 % 1015,9 hPa 0,0 l/m 0 min 0 min 317 W/m 29,0 km/h (5 Bft) 97,87 %
09.08.2021 11:52 20,0 C 20,0 C 18,4 C 70 % 1015,9 hPa 0,0 l/m 0 min 0 min 322 W/m 22,5 km/h (4 Bft) 100,00 %
09.08.2021 11:54 20,0 C 20,0 C 18,4 C 70 % 1015,9 hPa 0,0 l/m 0 min 0 min 322 W/m 32,2 km/h (5 Bft) 100,00 %
09.08.2021 11:56 20,0 C 20,0 C 18,4 C 70 % 1016,0 hPa 0,0 l/m 0 min 0 min 319 W/m 25,7 km/h (4 Bft) 100,00 %
09.08.2021 11:58 20,0 C 20,0 C 18,4 C 70 % 1015,9 hPa 0,0 l/m 0 min 0 min 300 W/m 35,4 km/h (5 Bft) 100,00 %
09.08.2021 12:00 20,0 C 20,0 C 18,4 C 70 % 1016,1 hPa 0,0 l/m 0 min 0 min 310 W/m 22,5 km/h (4 Bft) 100,00 %
09.08.2021 12:02 20,0 C 20,0 C 18,4 C 70 % 1016,0 hPa 0,0 l/m 0 min 0 min 306 W/m 29,0 km/h (5 Bft) 100,00 %
09.08.2021 12:04 20,0 C 20,0 C 18,4 C 70 % 1016,0 hPa 0,0 l/m 0 min 0 min 362 W/m 25,7 km/h (4 Bft) 100,00 %
09.08.2021 12:08 20,1 C 21,1 C 19,5 C 70 % 1016,0 hPa 0,0 l/m 4 min 0 min 446 W/m 22,5 km/h (4 Bft) 98,94 %
09.08.2021 12:10 20,2 C 21,7 C 20,6 C 70 % 1016,1 hPa 0,0 l/m 2 min 0 min 577 W/m 25,7 km/h (4 Bft) 95,74 %
09.08.2021 12:12 20,3 C 21,7 C 21,1 C 69 % 1016,1 hPa 0,0 l/m 2 min 0 min 507 W/m 29,0 km/h (5 Bft) 97,87 %
09.08.2021 12:14 20,4 C 22,2 C 21,7 C 68 % 1016,0 hPa 0,0 l/m 2 min 0 min 499 W/m 22,5 km/h (4 Bft) 95,74 %
09.08.2021 12:16 20,6 C 22,2 C 21,1 C 68 % 1016,0 hPa 0,0 l/m 2 min 0 min 448 W/m 25,7 km/h (4 Bft) 97,83 %
09.08.2021 12:18 20,6 C 21,7 C 21,1 C 68 % 1016,0 hPa 0,0 l/m 2 min 0 min 431 W/m 19,3 km/h (3 Bft) 97,87 %
09.08.2021 12:20 20,7 C 21,7 C 20,6 C 68 % 1016,0 hPa 0,0 l/m 0 min 0 min 367 W/m 19,3 km/h (3 Bft) 97,87 %
09.08.2021 12:22 20,7 C 21,1 C 20,0 C 68 % 1016,0 hPa 0,0 l/m 0 min 0 min 273 W/m 16,1 km/h (3 Bft) 95,74 %
09.08.2021 12:24 20,6 C 20,6 C 19,5 C 67 % 1016,1 hPa 0,0 l/m 0 min 0 min 268 W/m 29,0 km/h (5 Bft) 97,87 %
09.08.2021 12:26 20,5 C 20,6 C 18,9 C 67 % 1016,2 hPa 0,0 l/m 0 min 0 min 355 W/m 29,0 km/h (5 Bft) 95,74 %
09.08.2021 12:28 20,4 C 21,1 C 20,0 C 66 % 1016,1 hPa 0,0 l/m 2 min 0 min 397 W/m 54,7 km/h (7 Bft) 97,83 %
09.08.2021 12:30 20,4 C 21,1 C 20,0 C 66 % 1016,1 hPa 0,0 l/m 2 min 0 min 401 W/m 41,8 km/h (6 Bft) 97,87 %
09.08.2021 12:32 20,5 C 21,1 C 20,0 C 65 % 1016,0 hPa 0,0 l/m 2 min 0 min 412 W/m 38,6 km/h (5 Bft) 95,74 %
09.08.2021 12:34 20,5 C 21,1 C 20,0 C 65 % 1016,0 hPa 0,0 l/m 2 min 0 min 500 W/m 19,3 km/h (3 Bft) 97,87 %
09.08.2021 12:36 20,6 C 21,7 C 20,6 C 66 % 1016,0 hPa 0,0 l/m 2 min 0 min 606 W/m 22,5 km/h (4 Bft) 93,62 %
09.08.2021 12:38 20,8 C 21,7 C 20,6 C 66 % 1016,0 hPa 0,0 l/m 2 min 0 min 614 W/m 16,1 km/h (3 Bft) 97,87 %
09.08.2021 12:40 20,8 C 21,7 C 20,0 C 66 % 1015,9 hPa 0,0 l/m 2 min 0 min 532 W/m 48,3 km/h (6 Bft) 95,65 %
09.08.2021 12:42 20,9 C 21,7 C 20,0 C 65 % 1015,9 hPa 0,0 l/m 2 min 0 min 475 W/m 19,3 km/h (3 Bft) 97,87 %
09.08.2021 12:44 20,9 C 21,1 C 20,0 C 66 % 1016,0 hPa 0,0 l/m 2 min 0 min 437 W/m 22,5 km/h (4 Bft) 95,74 %
09.08.2021 12:46 20,8 C 21,1 C 19,5 C 65 % 1016,0 hPa 0,0 l/m 2 min 0 min 448 W/m 29,0 km/h (5 Bft) 97,87 %
09.08.2021 12:48 20,7 C 21,1 C 19,5 C 65 % 1016,0 hPa 0,0 l/m 2 min 0 min 391 W/m 19,3 km/h (3 Bft) 97,87 %
09.08.2021 12:50 20,7 C 21,1 C 19,5 C 66 % 1016,1 hPa 0,0 l/m 0 min 0 min 364 W/m 29,0 km/h (5 Bft) 100,00 %
09.08.2021 12:52 20,6 C 21,1 C 18,9 C 66 % 1016,1 hPa 0,0 l/m 0 min 0 min 372 W/m 29,0 km/h (5 Bft) 100,00 %
09.08.2021 12:54 20,6 C 21,1 C 18,9 C 67 % 1016,1 hPa 0,0 l/m 0 min 0 min 365 W/m 12,9 km/h (3 Bft) 100,00 %
09.08.2021 12:56 20,6 C 20,6 C 18,9 C 67 % 1016,2 hPa 0,0 l/m 2 min 0 min 399 W/m 32,2 km/h (5 Bft) 100,00 %
09.08.2021 12:58 20,5 C 21,1 C 18,9 C 67 % 1016,2 hPa 0,0 l/m 2 min 0 min 457 W/m 19,3 km/h (3 Bft) 100,00 %
09.08.2021 13:00 20,5 C 21,1 C 18,9 C 67 % 1016,3 hPa 0,0 l/m 2 min 0 min 457 W/m 29,0 km/h (5 Bft) 100,00 %
09.08.2021 13:03 20,7 C 22,2 C 18,9 C 67 % 1016,2 hPa 0,0 l/m 3 min 0 min 590 W/m 22,5 km/h (4 Bft) 100,00 %
09.08.2021 13:04 20,8 C 22,2 C 18,9 C 68 % 1016,1 hPa 0,0 l/m 1 min 0 min 982 W/m 22,5 km/h (4 Bft) 100,00 %
09.08.2021 13:06 21,0 C 22,8 C 19,5 C 68 % 1016,1 hPa 0,0 l/m 2 min 0 min 983 W/m 19,3 km/h (3 Bft) 100,00 %
09.08.2021 13:08 21,0 C 22,2 C 19,5 C 67 % 1016,1 hPa 0,0 l/m 2 min 0 min 832 W/m 12,9 km/h (3 Bft) 100,00 %
09.08.2021 13:10 21,1 C 22,2 C 19,5 C 67 % 1016,1 hPa 0,0 l/m 2 min 0 min 501 W/m 32,2 km/h (5 Bft) 100,00 %
09.08.2021 13:12 21,1 C 21,7 C 19,5 C 66 % 1016,1 hPa 0,0 l/m 2 min 0 min 506 W/m 29,0 km/h (5 Bft) 100,00 %
09.08.2021 13:14 21,1 C 22,2 C 19,5 C 67 % 1016,2 hPa 0,0 l/m 2 min 0 min 543 W/m 19,3 km/h (3 Bft) 100,00 %
09.08.2021 13:16 21,1 C 22,2 C 19,5 C 67 % 1016,1 hPa 0,0 l/m 2 min 0 min 500 W/m 29,0 km/h (5 Bft) 100,00 %
09.08.2021 13:18 21,1 C 21,7 C 19,5 C 66 % 1016,1 hPa 0,0 l/m 2 min 0 min 432 W/m 25,7 km/h (4 Bft) 100,00 %
09.08.2021 13:20 21,0 C 21,7 C 19,5 C 66 % 1016,2 hPa 0,0 l/m 2 min 0 min 431 W/m 38,6 km/h (5 Bft) 100,00 %
09.08.2021 13:22 21,0 C 21,7 C 19,5 C 67 % 1016,1 hPa 0,0 l/m 0 min 0 min 393 W/m 12,9 km/h (3 Bft) 97,87 %
09.08.2021 13:24 21,1 C 21,7 C 19,5 C 68 % 1016,1 hPa 0,0 l/m 2 min 0 min 404 W/m 19,3 km/h (3 Bft) 97,87 %
09.08.2021 13:26 21,0 C 21,7 C 19,5 C 67 % 1016,1 hPa 0,0 l/m 2 min 0 min 471 W/m 35,4 km/h (5 Bft) 97,83 %
09.08.2021 13:28 21,0 C 21,7 C 19,5 C 66 % 1016,2 hPa 0,0 l/m 2 min 0 min 512 W/m 32,2 km/h (5 Bft) 97,87 %
09.08.2021 13:30 21,1 C 22,2 C 19,5 C 67 % 1016,1 hPa 0,0 l/m 2 min 0 min 512 W/m 16,1 km/h (3 Bft) 97,87 %
09.08.2021 13:32 21,1 C 22,2 C 19,5 C 67 % 1016,1 hPa 0,0 l/m 2 min 0 min 407 W/m 16,1 km/h (3 Bft) 95,74 %
09.08.2021 13:34 21,2 C 22,2 C 19,5 C 66 % 1016,1 hPa 0,0 l/m 0 min 0 min 350 W/m 19,3 km/h (3 Bft) 97,87 %
09.08.2021 13:36 21,2 C 21,7 C 19,5 C 66 % 1016,1 hPa 0,0 l/m 0 min 0 min 315 W/m 25,7 km/h (4 Bft) 97,87 %
09.08.2021 13:38 21,1 C 21,7 C 19,5 C 66 % 1016,1 hPa 0,0 l/m 0 min 0 min 353 W/m 25,7 km/h (4 Bft) 97,83 %
09.08.2021 13:40 21,1 C 21,7 C 19,5 C 66 % 1016,1 hPa 0,0 l/m 0 min 0 min 376 W/m 25,7 km/h (4 Bft) 97,87 %
09.08.2021 13:42 21,1 C 21,7 C 19,5 C 66 % 1016,1 hPa 0,0 l/m 0 min 0 min 348 W/m 16,1 km/h (3 Bft) 97,87 %
09.08.2021 13:44 21,1 C 21,1 C 18,9 C 67 % 1016,1 hPa 0,0 l/m 0 min 0 min 332 W/m 16,1 km/h (3 Bft) 97,87 %
09.08.2021 13:46 21,1 C 21,1 C 18,9 C 66 % 1016,2 hPa 0,0 l/m 0 min 0 min 299 W/m 22,5 km/h (4 Bft) 97,87 %
09.08.2021 13:48 21,1 C 21,1 C 18,9 C 66 % 1016,1 hPa 0,0 l/m 0 min 0 min 245 W/m 12,9 km/h (3 Bft) 97,87 %
09.08.2021 13:50 21,0 C 20,6 C 18,9 C 65 % 1016,3 hPa 0,0 l/m 0 min 0 min 226 W/m 38,6 km/h (5 Bft) 93,62 %
09.08.2021 13:52 20,9 C 20,6 C 18,4 C 65 % 1016,1 hPa 0,0 l/m 0 min 0 min 210 W/m 22,5 km/h (4 Bft) 97,83 %
09.08.2021 13:54 20,8 C 20,6 C 18,4 C 66 % 1016,1 hPa 0,0 l/m 0 min 0 min 197 W/m 29,0 km/h (5 Bft) 97,87 %
09.08.2021 13:56 20,8 C 20,6 C 18,4 C 66 % 1016,1 hPa 0,0 l/m 0 min 0 min 176 W/m 29,0 km/h (5 Bft) 97,87 %
09.08.2021 13:58 20,8 C 20,6 C 18,4 C 67 % 1016,1 hPa 0,0 l/m 0 min 0 min 132 W/m 12,9 km/h (3 Bft) 97,87 %
09.08.2021 14:00 20,8 C 20,0 C 17,8 C 67 % 1016,2 hPa 0,0 l/m 0 min 0 min 103 W/m 16,1 km/h (3 Bft) 97,87 %
09.08.2021 14:02 20,7 C 20,0 C 17,8 C 67 % 1016,2 hPa 0,0 l/m 0 min 0 min 82 W/m 12,9 km/h (3 Bft) 100,00 %
09.08.2021 14:04 20,6 C 20,0 C 17,8 C 67 % 1016,1 hPa 0,0 l/m 0 min 0 min 76 W/m 16,1 km/h (3 Bft) 97,87 %
09.08.2021 14:06 20,5 C 20,0 C 17,3 C 67 % 1016,2 hPa 0,0 l/m 0 min 0 min 83 W/m 16,1 km/h (3 Bft) 100,00 %
09.08.2021 14:08 20,4 C 20,0 C 17,3 C 68 % 1016,2 hPa 0,0 l/m 0 min 0 min 102 W/m 22,5 km/h (4 Bft) 97,87 %
09.08.2021 14:10 20,4 C 20,0 C 17,3 C 68 % 1016,2 hPa 0,0 l/m 0 min 0 min 145 W/m 16,1 km/h (3 Bft) 100,00 %
09.08.2021 14:12 20,3 C 20,0 C 17,3 C 69 % 1016,2 hPa 0,0 l/m 0 min 0 min 216 W/m 12,9 km/h (3 Bft) 97,87 %
09.08.2021 14:14 20,3 C 20,0 C 17,8 C 69 % 1016,3 hPa 0,0 l/m 0 min 0 min 274 W/m 19,3 km/h (3 Bft) 97,87 %
09.08.2021 14:16 20,3 C 20,6 C 17,8 C 69 % 1016,2 hPa 0,0 l/m 0 min 0 min 312 W/m 12,9 km/h (3 Bft) 97,87 %
09.08.2021 14:18 20,4 C 21,1 C 18,4 C 69 % 1016,2 hPa 0,0 l/m 0 min 0 min 377 W/m 9,7 km/h (2 Bft) 97,87 %
09.08.2021 14:20 20,5 C 21,1 C 18,4 C 70 % 1016,3 hPa 0,0 l/m 2 min 0 min 394 W/m 16,1 km/h (3 Bft) 97,87 %
09.08.2021 14:22 20,6 C 21,7 C 18,9 C 69 % 1016,2 hPa 0,0 l/m 2 min 0 min 430 W/m 22,5 km/h (4 Bft) 97,83 %
09.08.2021 14:24 20,8 C 21,7 C 18,9 C 67 % 1016,3 hPa 0,0 l/m 2 min 0 min 461 W/m 32,2 km/h (5 Bft) 97,87 %
09.08.2021 14:26 20,9 C 21,7 C 18,9 C 67 % 1016,2 hPa 0,0 l/m 2 min 0 min 414 W/m 25,7 km/h (4 Bft) 97,87 %
09.08.2021 14:28 20,9 C 21,7 C 18,9 C 66 % 1016,2 hPa 0,0 l/m 0 min 0 min 322 W/m 22,5 km/h (4 Bft) 97,87 %
09.08.2021 14:30 21,0 C 21,1 C 18,9 C 66 % 1016,3 hPa 0,0 l/m 0 min 0 min 350 W/m 29,0 km/h (5 Bft) 97,87 %
09.08.2021 14:32 21,0 C 21,1 C 18,9 C 65 % 1016,4 hPa 0,0 l/m 0 min 0 min 336 W/m 22,5 km/h (4 Bft) 95,65 %
09.08.2021 14:34 21,0 C 21,1 C 18,9 C 65 % 1016,4 hPa 0,0 l/m 0 min 0 min 319 W/m 32,2 km/h (5 Bft) 97,87 %
09.08.2021 14:36 21,0 C 21,1 C 18,9 C 65 % 1016,4 hPa 0,0 l/m 0 min 0 min 365 W/m 25,7 km/h (4 Bft) 97,87 %
09.08.2021 14:38 21,0 C 21,7 C 18,9 C 65 % 1016,4 hPa 0,0 l/m 2 min 0 min 471 W/m 25,7 km/h (4 Bft) 97,87 %
09.08.2021 14:40 21,0 C 21,7 C 18,9 C 65 % 1016,4 hPa 0,0 l/m 2 min 0 min 466 W/m 32,2 km/h (5 Bft) 95,74 %
09.08.2021 14:42 21,0 C 21,7 C 18,9 C 65 % 1016,4 hPa 0,0 l/m 2 min 0 min 532 W/m 38,6 km/h (5 Bft) 95,74 %
09.08.2021 14:44 21,1 C 22,8 C 19,5 C 66 % 1016,4 hPa 0,0 l/m 2 min 0 min 625 W/m 16,1 km/h (3 Bft) 95,65 %
09.08.2021 14:46 21,3 C 22,8 C 19,5 C 65 % 1016,4 hPa 0,0 l/m 2 min 0 min 636 W/m 19,3 km/h (3 Bft) 93,62 %
09.08.2021 14:48 21,4 C 22,8 C 19,5 C 64 % 1016,3 hPa 0,0 l/m 2 min 0 min 455 W/m 29,0 km/h (5 Bft) 93,62 %
09.08.2021 14:50 21,4 C 22,8 C 19,5 C 65 % 1016,3 hPa 0,0 l/m 2 min 0 min 584 W/m 19,3 km/h (3 Bft) 95,74 %
09.08.2021 14:52 21,5 C 22,8 C 19,5 C 64 % 1016,2 hPa 0,0 l/m 2 min 0 min 667 W/m 25,7 km/h (4 Bft) 95,74 %
09.08.2021 14:54 21,5 C 22,8 C 19,5 C 65 % 1016,1 hPa 0,0 l/m 2 min 0 min 444 W/m 12,9 km/h (3 Bft) 95,74 %
09.08.2021 14:56 21,5 C 22,2 C 19,5 C 64 % 1016,2 hPa 0,0 l/m 2 min 0 min 381 W/m 22,5 km/h (4 Bft) 95,65 %
09.08.2021 14:58 21,6 C 22,2 C 19,5 C 64 % 1016,2 hPa 0,0 l/m 0 min 0 min 277 W/m 19,3 km/h (3 Bft) 93,62 %
09.08.2021 15:00 21,5 C 21,7 C 19,5 C 64 % 1016,2 hPa 0,0 l/m 0 min 0 min 297 W/m 22,5 km/h (4 Bft) 93,62 %
09.08.2021 15:02 21,4 C 21,7 C 18,9 C 63 % 1016,3 hPa 0,0 l/m 0 min 0 min 310 W/m 29,0 km/h (5 Bft) 91,43 %
09.08.2021 15:04 21,4 C 21,1 C 18,9 C 64 % 1016,2 hPa 0,0 l/m 0 min 0 min 308 W/m 29,0 km/h (5 Bft) 95,74 %
09.08.2021 15:06 21,3 C 21,1 C 18,9 C 64 % 1016,2 hPa 0,0 l/m 0 min 0 min 323 W/m 35,4 km/h (5 Bft) 92,98 %
09.08.2021 15:08 21,3 C 21,7 C 18,9 C 64 % 1016,3 hPa 0,0 l/m 0 min 0 min 341 W/m 35,4 km/h (5 Bft) 95,83 %
09.08.2021 15:10 21,3 C 22,8 C 19,5 C 65 % 1016,2 hPa 0,0 l/m 0 min 0 min 341 W/m 16,1 km/h (3 Bft) 97,87 %
09.08.2021 15:12 21,4 C 22,8 C 19,5 C 66 % 1016,1 hPa 0,0 l/m 2 min 0 min 384 W/m 12,9 km/h (3 Bft) 97,87 %
09.08.2021 15:14 21,5 C 22,8 C 19,5 C 65 % 1016,1 hPa 0,0 l/m 0 min 0 min 328 W/m 12,9 km/h (3 Bft) 97,87 %
09.08.2021 15:16 21,5 C 22,8 C 19,5 C 64 % 1016,2 hPa 0,0 l/m 2 min 0 min 413 W/m 12,9 km/h (3 Bft) 97,87 %
09.08.2021 15:18 21,5 C 22,2 C 19,5 C 64 % 1016,0 hPa 0,0 l/m 0 min 0 min 353 W/m 32,2 km/h (5 Bft) 97,87 %
09.08.2021 15:20 21,5 C 22,2 C 19,5 C 64 % 1016,1 hPa 0,0 l/m 2 min 0 min 420 W/m 29,0 km/h (5 Bft) 95,65 %
09.08.2021 15:22 21,6 C 22,2 C 19,5 C 64 % 1016,1 hPa 0,0 l/m 2 min 0 min 417 W/m 22,5 km/h (4 Bft) 100,00 %
09.08.2021 15:24 21,6 C 23,3 C 19,5 C 64 % 1016,1 hPa 0,0 l/m 2 min 0 min 396 W/m 25,7 km/h (4 Bft) 97,87 %
09.08.2021 15:26 21,8 C 23,9 C 19,5 C 64 % 1016,1 hPa 0,0 l/m 2 min 0 min 396 W/m 25,7 km/h (4 Bft) 100,00 %
09.08.2021 15:28 22,0 C 23,9 C 19,5 C 64 % 1016,1 hPa 0,0 l/m 2 min 0 min 366 W/m 19,3 km/h (3 Bft) 97,87 %
09.08.2021 15:30 22,0 C 22,8 C 19,5 C 64 % 1016,2 hPa 0,0 l/m 0 min 0 min 261 W/m 19,3 km/h (3 Bft) 97,87 %
09.08.2021 15:32 22,0 C 22,2 C 19,5 C 63 % 1016,2 hPa 0,0 l/m 0 min 0 min 250 W/m 25,7 km/h (4 Bft) 97,87 %
09.08.2021 15:34 21,9 C 22,2 C 19,5 C 63 % 1016,2 hPa 0,0 l/m 0 min 0 min 274 W/m 29,0 km/h (5 Bft) 95,65 %
09.08.2021 15:36 21,9 C 23,3 C 19,5 C 64 % 1016,2 hPa 0,0 l/m 0 min 0 min 285 W/m 25,7 km/h (4 Bft) 97,87 %
09.08.2021 15:38 22,0 C 23,9 C 19,5 C 64 % 1016,3 hPa 0,0 l/m 0 min 0 min 285 W/m 32,2 km/h (5 Bft) 97,87 %
09.08.2021 15:40 22,0 C 23,3 C 19,5 C 64 % 1016,3 hPa 0,0 l/m 0 min 0 min 300 W/m 38,6 km/h (5 Bft) 97,87 %
09.08.2021 15:42 22,0 C 22,8 C 19,5 C 63 % 1016,3 hPa 0,0 l/m 0 min 0 min 339 W/m 41,8 km/h (6 Bft) 97,87 %
09.08.2021 15:44 21,9 C 22,2 C 19,5 C 63 % 1016,3 hPa 0,0 l/m 0 min 0 min 320 W/m 32,2 km/h (5 Bft) 97,83 %
09.08.2021 15:46 21,9 C 22,8 C 19,5 C 64 % 1016,2 hPa 0,0 l/m 0 min 0 min 318 W/m 19,3 km/h (3 Bft) 95,74 %
09.08.2021 15:48 21,9 C 23,3 C 19,5 C 63 % 1016,2 hPa 0,0 l/m 0 min 0 min 318 W/m 41,8 km/h (6 Bft) 97,87 %
09.08.2021 15:50 21,9 C 22,8 C 19,5 C 64 % 1016,1 hPa 0,0 l/m 2 min 0 min 752 W/m 32,2 km/h (5 Bft) 95,74 %
09.08.2021 15:52 21,8 C 22,2 C 18,9 C 64 % 1016,1 hPa 0,0 l/m 0 min 0 min 244 W/m 29,0 km/h (5 Bft) 95,74 %
09.08.2021 15:54 21,7 C 22,8 C 18,9 C 65 % 1016,0 hPa 0,0 l/m 0 min 0 min 286 W/m 19,3 km/h (3 Bft) 97,87 %
09.08.2021 15:56 21,7 C 22,8 C 18,9 C 65 % 1016,1 hPa 0,0 l/m 0 min 0 min 314 W/m 32,2 km/h (5 Bft) 97,83 %
09.08.2021 15:58 21,8 C 23,9 C 18,9 C 65 % 1016,1 hPa 0,0 l/m 2 min 0 min 447 W/m 29,0 km/h (5 Bft) 97,87 %
09.08.2021 16:00 21,9 C 24,4 C 19,5 C 65 % 1016,1 hPa 0,0 l/m 2 min 0 min 778 W/m 22,5 km/h (4 Bft) 97,87 %
09.08.2021 16:02 22,0 C 23,9 C 19,5 C 65 % 1016,0 hPa 0,0 l/m 2 min 0 min 489 W/m 22,5 km/h (4 Bft) 97,87 %
09.08.2021 16:04 22,1 C 22,8 C 19,5 C 63 % 1016,1 hPa 0,0 l/m 0 min 0 min 312 W/m 32,2 km/h (5 Bft) 100,00 %
09.08.2021 16:06 22,0 C 22,8 C 19,5 C 63 % 1016,0 hPa 0,0 l/m 0 min 0 min 318 W/m 32,2 km/h (5 Bft) 100,00 %
09.08.2021 16:08 22,0 C 22,2 C 19,5 C 62 % 1016,2 hPa 0,0 l/m 0 min 0 min 287 W/m 35,4 km/h (5 Bft) 100,00 %
09.08.2021 16:10 21,9 C 21,7 C 18,9 C 63 % 1016,0 hPa 0,0 l/m 0 min 0 min 225 W/m 25,7 km/h (4 Bft) 100,00 %
09.08.2021 16:12 21,8 C 21,7 C 18,9 C 64 % 1016,1 hPa 0,0 l/m 0 min 0 min 187 W/m 25,7 km/h (4 Bft) 100,00 %
09.08.2021 16:14 21,6 C 21,1 C 18,9 C 64 % 1016,1 hPa 0,0 l/m 0 min 0 min 147 W/m 22,5 km/h (4 Bft) 100,00 %
09.08.2021 16:16 21,6 C 21,1 C 18,9 C 64 % 1016,1 hPa 0,0 l/m 0 min 0 min 147 W/m 12,9 km/h (3 Bft) 100,00 %
09.08.2021 16:18 21,5 C 21,1 C 18,4 C 64 % 1016,1 hPa 0,0 l/m 0 min 0 min 138 W/m 16,1 km/h (3 Bft) 100,00 %
09.08.2021 16:20 21,4 C 21,1 C 18,4 C 65 % 1016,3 hPa 0,0 l/m 0 min 0 min 126 W/m 29,0 km/h (5 Bft) 100,00 %
09.08.2021 16:22 21,4 C 21,1 C 18,4 C 66 % 1016,2 hPa 0,0 l/m 0 min 0 min 186 W/m 22,5 km/h (4 Bft) 100,00 %
09.08.2021 16:24 21,4 C 21,1 C 18,4 C 66 % 1016,3 hPa 0,0 l/m 0 min 0 min 299 W/m 22,5 km/h (4 Bft) 97,87 %
09.08.2021 16:26 21,4 C 21,1 C 18,4 C 67 % 1016,3 hPa 0,0 l/m 0 min 0 min 261 W/m 16,1 km/h (3 Bft) 100,00 %
09.08.2021 16:28 21,4 C 21,1 C 18,4 C 69 % 1016,3 hPa 0,0 l/m 0 min 0 min 233 W/m 25,7 km/h (4 Bft) 100,00 %
09.08.2021 16:30 21,4 C 21,1 C 18,4 C 67 % 1016,3 hPa 0,0 l/m 0 min 0 min 209 W/m 22,5 km/h (4 Bft) 100,00 %
09.08.2021 16:32 21,3 C 21,1 C 18,4 C 68 % 1016,3 hPa 0,0 l/m 0 min 0 min 202 W/m 12,9 km/h (3 Bft) 97,83 %
09.08.2021 16:36 21,2 C 21,1 C 18,4 C 68 % 1016,2 hPa 0,0 l/m 0 min 0 min 195 W/m 6,4 km/h (2 Bft) 100,00 %
09.08.2021 16:38 21,2 C 21,1 C 18,4 C 68 % 1016,2 hPa 0,0 l/m 0 min 0 min 175 W/m 12,9 km/h (3 Bft) 100,00 %
09.08.2021 16:40 21,2 C 21,1 C 18,4 C 68 % 1016,1 hPa 0,0 l/m 0 min 0 min 150 W/m 12,9 km/h (3 Bft) 100,00 %
09.08.2021 16:42 21,1 C 20,6 C 18,4 C 69 % 1016,2 hPa 0,0 l/m 0 min 0 min 131 W/m 19,3 km/h (3 Bft) 100,00 %
09.08.2021 16:44 21,1 C 20,6 C 18,4 C 69 % 1016,2 hPa 0,0 l/m 0 min 0 min 121 W/m 16,1 km/h (3 Bft) 100,00 %
09.08.2021 16:46 21,0 C 20,6 C 18,4 C 69 % 1016,2 hPa 0,0 l/m 0 min 0 min 120 W/m 16,1 km/h (3 Bft) 100,00 %
09.08.2021 16:48 21,0 C 20,6 C 18,4 C 69 % 1016,2 hPa 0,0 l/m 0 min 0 min 121 W/m 22,5 km/h (4 Bft) 100,00 %
09.08.2021 16:50 21,0 C 20,6 C 18,4 C 69 % 1016,3 hPa 0,0 l/m 0 min 0 min 113 W/m 12,9 km/h (3 Bft) 100,00 %
09.08.2021 16:52 21,0 C 20,6 C 17,8 C 70 % 1016,3 hPa 0,0 l/m 0 min 0 min 103 W/m 19,3 km/h (3 Bft) 100,00 %
09.08.2021 16:54 20,9 C 20,6 C 17,8 C 70 % 1016,2 hPa 0,0 l/m 0 min 0 min 107 W/m 16,1 km/h (3 Bft) 100,00 %
09.08.2021 16:56 20,9 C 20,6 C 17,8 C 70 % 1016,2 hPa 0,0 l/m 0 min 0 min 104 W/m 12,9 km/h (3 Bft) 100,00 %
09.08.2021 16:58 20,9 C 20,0 C 17,8 C 70 % 1016,3 hPa 0,0 l/m 0 min 0 min 95 W/m 29,0 km/h (5 Bft) 100,00 %
09.08.2021 17:00 20,9 C 20,0 C 17,8 C 70 % 1016,2 hPa 0,0 l/m 0 min 0 min 81 W/m 16,1 km/h (3 Bft) 100,00 %
09.08.2021 17:02 20,9 C 20,0 C 17,8 C 70 % 1016,2 hPa 0,0 l/m 0 min 0 min 68 W/m 22,5 km/h (4 Bft) 100,00 %
09.08.2021 17:04 20,9 C 20,0 C 17,8 C 69 % 1016,2 hPa 0,0 l/m 0 min 0 min 67 W/m 16,1 km/h (3 Bft) 100,00 %
09.08.2021 17:06 20,8 C 20,0 C 17,8 C 69 % 1016,1 hPa 0,0 l/m 0 min 0 min 88 W/m 29,0 km/h (5 Bft) 100,00 %
09.08.2021 17:08 20,8 C 20,0 C 17,8 C 68 % 1016,2 hPa 0,0 l/m 0 min 0 min 97 W/m 25,7 km/h (4 Bft) 100,00 %
09.08.2021 17:10 20,8 C 20,0 C 17,8 C 67 % 1016,2 hPa 0,0 l/m 0 min 0 min 103 W/m 35,4 km/h (5 Bft) 100,00 %
09.08.2021 17:12 20,7 C 20,0 C 17,8 C 67 % 1016,2 hPa 0,0 l/m 0 min 0 min 105 W/m 32,2 km/h (5 Bft) 97,87 %
09.08.2021 17:14 20,7 C 20,0 C 17,8 C 67 % 1016,5 hPa 0,0 l/m 0 min 0 min 114 W/m 35,4 km/h (5 Bft) 95,74 %
09.08.2021 17:16 20,7 C 20,0 C 17,8 C 67 % 1016,2 hPa 0,0 l/m 0 min 0 min 117 W/m 25,7 km/h (4 Bft) 95,74 %
09.08.2021 17:18 20,7 C 20,0 C 17,8 C 67 % 1016,2 hPa 0,0 l/m 0 min 0 min 119 W/m 22,5 km/h (4 Bft) 95,65 %
09.08.2021 17:20 20,7 C 20,6 C 17,8 C 67 % 1016,2 hPa 0,0 l/m 0 min 0 min 127 W/m 22,5 km/h (4 Bft) 97,87 %
09.08.2021 17:22 20,7 C 20,0 C 17,8 C 67 % 1016,3 hPa 0,0 l/m 0 min 0 min 129 W/m 22,5 km/h (4 Bft) 93,62 %
09.08.2021 17:24 20,7 C 20,0 C 17,8 C 67 % 1016,2 hPa 0,0 l/m 0 min 0 min 104 W/m 25,7 km/h (4 Bft) 93,62 %
09.08.2021 17:26 20,7 C 20,0 C 17,8 C 68 % 1016,2 hPa 0,0 l/m 0 min 0 min 81 W/m 16,1 km/h (3 Bft) 95,74 %
09.08.2021 17:28 20,6 C 20,0 C 17,8 C 68 % 1016,2 hPa 0,0 l/m 0 min 0 min 79 W/m 12,9 km/h (3 Bft) 95,65 %
09.08.2021 17:30 20,6 C 20,0 C 17,8 C 68 % 1016,3 hPa 0,0 l/m 0 min 0 min 58 W/m 6,4 km/h (2 Bft) 95,74 %
09.08.2021 17:32 20,6 C 20,0 C 17,8 C 69 % 1016,4 hPa 0,0 l/m 0 min 0 min 38 W/m 16,1 km/h (3 Bft) 95,74 %
09.08.2021 17:34 20,6 C 20,0 C 17,3 C 69 % 1016,4 hPa 0,0 l/m 0 min 0 min 31 W/m 16,1 km/h (3 Bft) 93,62 %
09.08.2021 17:36 20,6 C 20,0 C 17,3 C 69 % 1016,4 hPa 0,0 l/m 0 min 2 min 25 W/m 12,9 km/h (3 Bft) 91,49 %
09.08.2021 17:38 20,5 C 19,4 C 16,7 C 70 % 1016,5 hPa 0,0 l/m 0 min 2 min 19 W/m 16,1 km/h (3 Bft) 89,36 %
09.08.2021 17:40 20,5 C 19,4 C 16,1 C 72 % 1016,5 hPa 0,0 l/m 0 min 2 min 15 W/m 9,7 km/h (2 Bft) 93,48 %
09.08.2021 17:42 20,4 C 19,4 C 15,6 C 72 % 1016,4 hPa 0,0 l/m 0 min 2 min 13 W/m 12,9 km/h (3 Bft) 93,62 %
09.08.2021 17:44 20,3 C 18,9 C 15,0 C 72 % 1016,4 hPa 0,0 l/m 0 min 2 min 11 W/m 16,1 km/h (3 Bft) 91,49 %
09.08.2021 17:46 20,1 C 18,9 C 14,5 C 74 % 1016,4 hPa 0,0 l/m 0 min 2 min 9 W/m 19,3 km/h (3 Bft) 93,62 %
09.08.2021 17:48 20,1 C 18,3 C 14,5 C 75 % 1016,3 hPa 0,2 l/m 0 min 2 min 8 W/m 12,9 km/h (3 Bft) 93,62 %
09.08.2021 17:50 20,0 C 18,3 C 14,5 C 76 % 1016,2 hPa 0,0 l/m 0 min 2 min 7 W/m 3,2 km/h (1 Bft) 91,49 %
09.08.2021 17:52 19,9 C 18,3 C 14,5 C 76 % 1016,2 hPa 0,0 l/m 0 min 2 min 7 W/m 3,2 km/h (1 Bft) 89,13 %
09.08.2021 17:54 19,9 C 18,3 C 14,5 C 78 % 1016,3 hPa 0,0 l/m 0 min 2 min 6 W/m 3,2 km/h (1 Bft) 93,62 %
09.08.2021 17:56 19,9 C 17,8 C 13,9 C 79 % 1016,3 hPa 0,0 l/m 0 min 2 min 5 W/m 3,2 km/h (1 Bft) 91,49 %
09.08.2021 17:58 19,8 C 17,8 C 13,9 C 79 % 1016,3 hPa 0,0 l/m 0 min 2 min 5 W/m 3,2 km/h (1 Bft) 97,87 %
09.08.2021 18:00 19,6 C 17,2 C 13,9 C 80 % 1016,4 hPa 0,2 l/m 0 min 2 min 5 W/m 3,2 km/h (1 Bft) 95,74 %
09.08.2021 18:02 19,4 C 16,7 C 13,9 C 81 % 1016,3 hPa 0,0 l/m 0 min 2 min 5 W/m 6,4 km/h (2 Bft) 93,62 %
09.08.2021 18:04 19,3 C 16,7 C 13,9 C 81 % 1016,4 hPa 0,0 l/m 0 min 2 min 5 W/m 16,1 km/h (3 Bft) 97,83 %
09.08.2021 18:08 18,9 C 16,1 C 13,4 C 82 % 1016,6 hPa 0,4 l/m 0 min 4 min 2 W/m 16,1 km/h (3 Bft) 97,62 %
09.08.2021 18:10 18,6 C 15,6 C 13,4 C 83 % 1017,0 hPa 0,2 l/m 0 min 2 min 5 W/m 16,1 km/h (3 Bft) 97,83 %
09.08.2021 18:12 18,3 C 15,6 C 13,4 C 84 % 1017,2 hPa 1,8 l/m 0 min 2 min 10 W/m 16,1 km/h (3 Bft) 95,74 %
09.08.2021 18:14 17,9 C 15,0 C 12,8 C 86 % 1017,2 hPa 1,0 l/m 0 min 2 min 12 W/m 16,1 km/h (3 Bft) 97,87 %
09.08.2021 18:16 17,5 C 15,0 C 12,8 C 87 % 1017,2 hPa 0,4 l/m 0 min 2 min 14 W/m 25,7 km/h (4 Bft) 95,74 %
09.08.2021 18:18 17,1 C 14,4 C 12,8 C 88 % 1017,0 hPa 0,2 l/m 0 min 2 min 27 W/m 16,1 km/h (3 Bft) 97,87 %
09.08.2021 18:20 16,8 C 14,4 C 12,8 C 89 % 1016,6 hPa 0,0 l/m 0 min 2 min 35 W/m 9,7 km/h (2 Bft) 95,74 %
09.08.2021 18:22 16,6 C 14,4 C 12,8 C 89 % 1016,5 hPa 0,2 l/m 0 min 2 min 41 W/m 16,1 km/h (3 Bft) 97,83 %
09.08.2021 18:24 16,4 C 15,0 C 12,8 C 90 % 1016,5 hPa 0,0 l/m 0 min 2 min 46 W/m 9,7 km/h (2 Bft) 100,00 %
09.08.2021 18:26 16,3 C 14,4 C 12,8 C 90 % 1016,6 hPa 0,0 l/m 0 min 2 min 50 W/m 6,4 km/h (2 Bft) 100,00 %
09.08.2021 18:28 16,2 C 15,0 C 12,8 C 91 % 1016,6 hPa 0,2 l/m 0 min 2 min 57 W/m 16,1 km/h (3 Bft) 100,00 %
09.08.2021 18:30 16,2 C 15,0 C 12,8 C 92 % 1016,7 hPa 0,0 l/m 0 min 2 min 67 W/m 16,1 km/h (3 Bft) 100,00 %
09.08.2021 18:32 16,2 C 15,0 C 12,8 C 92 % 1016,9 hPa 0,0 l/m 0 min 2 min 87 W/m 6,4 km/h (2 Bft) 97,87 %
09.08.2021 18:34 16,2 C 15,6 C 12,8 C 92 % 1016,9 hPa 0,0 l/m 0 min 2 min 127 W/m 12,9 km/h (3 Bft) 100,00 %
09.08.2021 18:36 16,2 C 15,0 C 12,8 C 92 % 1016,9 hPa 0,2 l/m 0 min 2 min 170 W/m 25,7 km/h (4 Bft) 100,00 %
09.08.2021 18:38 16,1 C 15,0 C 12,8 C 92 % 1016,9 hPa 0,0 l/m 0 min 2 min 157 W/m 12,9 km/h (3 Bft) 97,87 %
09.08.2021 18:40 16,1 C 15,6 C 12,8 C 92 % 1016,9 hPa 0,0 l/m 2 min 2 min 234 W/m 16,1 km/h (3 Bft) 100,00 %
09.08.2021 18:42 16,1 C 16,7 C 13,4 C 92 % 1016,9 hPa 0,0 l/m 2 min 0 min 363 W/m 16,1 km/h (3 Bft) 100,00 %
09.08.2021 18:44 16,2 C 17,8 C 13,4 C 93 % 1016,9 hPa 0,0 l/m 2 min 0 min 361 W/m 16,1 km/h (3 Bft) 100,00 %
09.08.2021 18:46 16,2 C 17,8 C 13,4 C 93 % 1016,9 hPa 0,0 l/m 2 min 0 min 375 W/m 12,9 km/h (3 Bft) 100,00 %
09.08.2021 18:48 16,3 C 17,2 C 13,4 C 93 % 1016,8 hPa 0,0 l/m 2 min 0 min 190 W/m 16,1 km/h (3 Bft) 100,00 %
09.08.2021 18:50 16,3 C 16,7 C 13,4 C 93 % 1016,8 hPa 0,0 l/m 2 min 0 min 177 W/m 3,2 km/h (1 Bft) 100,00 %
09.08.2021 18:52 16,3 C 16,1 C 13,4 C 93 % 1016,8 hPa 0,0 l/m 2 min 0 min 170 W/m 6,4 km/h (2 Bft) 95,74 %
09.08.2021 18:54 16,3 C 16,1 C 13,4 C 93 % 1016,9 hPa 0,0 l/m 0 min 0 min 148 W/m 12,9 km/h (3 Bft) 100,00 %
09.08.2021 18:56 16,3 C 15,6 C 13,4 C 93 % 1016,8 hPa 0,0 l/m 0 min 0 min 133 W/m 6,4 km/h (2 Bft) 100,00 %
09.08.2021 18:58 16,3 C 15,6 C 13,4 C 93 % 1016,9 hPa 0,0 l/m 0 min 0 min 134 W/m 9,7 km/h (2 Bft) 100,00 %
09.08.2021 19:00 16,3 C 15,6 C 13,4 C 93 % 1016,8 hPa 0,0 l/m 0 min 0 min 131 W/m 9,7 km/h (2 Bft) 100,00 %
09.08.2021 19:02 16,3 C 15,6 C 13,4 C 93 % 1016,8 hPa 0,0 l/m 0 min 0 min 125 W/m 16,1 km/h (3 Bft) 100,00 %
09.08.2021 19:04 16,1 C 15,6 C 13,4 C 93 % 1016,8 hPa 0,0 l/m 0 min 0 min 118 W/m 12,9 km/h (3 Bft) 100,00 %
09.08.2021 19:06 16,1 C 15,6 C 13,4 C 93 % 1016,8 hPa 0,0 l/m 0 min 0 min 120 W/m 19,3 km/h (3 Bft) 97,87 %
09.08.2021 19:08 16,1 C 15,6 C 12,8 C 93 % 1016,8 hPa 0,0 l/m 0 min 0 min 119 W/m 6,4 km/h (2 Bft) 100,00 %
09.08.2021 19:10 16,0 C 15,6 C 12,8 C 93 % 1016,8 hPa 0,0 l/m 0 min 0 min 115 W/m 6,4 km/h (2 Bft) 100,00 %
09.08.2021 19:12 16,0 C 15,6 C 12,8 C 93 % 1016,8 hPa 0,0 l/m 0 min 0 min 109 W/m 12,9 km/h (3 Bft) 97,87 %
09.08.2021 19:14 16,1 C 15,6 C 13,4 C 93 % 1016,8 hPa 0,0 l/m 0 min 0 min 110 W/m 6,4 km/h (2 Bft) 100,00 %
09.08.2021 19:16 16,0 C 15,6 C 12,8 C 93 % 1016,8 hPa 0,0 l/m 0 min 0 min 103 W/m 6,4 km/h (2 Bft) 97,87 %
09.08.2021 19:18 16,0 C 15,6 C 13,4 C 93 % 1016,8 hPa 0,0 l/m 0 min 0 min 117 W/m 6,4 km/h (2 Bft) 100,00 %
09.08.2021 19:20 16,1 C 15,6 C 13,4 C 93 % 1016,8 hPa 0,0 l/m 0 min 0 min 108 W/m 6,4 km/h (2 Bft) 100,00 %
09.08.2021 19:22 16,1 C 15,6 C 13,4 C 93 % 1016,8 hPa 0,0 l/m 0 min 0 min 101 W/m 12,9 km/h (3 Bft) 97,83 %
09.08.2021 19:24 16,1 C 15,6 C 12,8 C 93 % 1016,8 hPa 0,0 l/m 0 min 0 min 98 W/m 6,4 km/h (2 Bft) 100,00 %
09.08.2021 19:26 16,1 C 15,6 C 12,8 C 93 % 1017,0 hPa 0,0 l/m 0 min 0 min 92 W/m 16,1 km/h (3 Bft) 97,87 %
09.08.2021 19:28 16,1 C 15,6 C 13,4 C 93 % 1017,0 hPa 0,0 l/m 0 min 0 min 85 W/m 12,9 km/h (3 Bft) 97,87 %
09.08.2021 19:30 16,1 C 15,6 C 13,4 C 93 % 1016,9 hPa 0,0 l/m 0 min 0 min 76 W/m 9,7 km/h (2 Bft) 97,87 %
09.08.2021 19:32 16,0 C 15,6 C 12,8 C 93 % 1016,9 hPa 0,0 l/m 0 min 0 min 80 W/m 6,4 km/h (2 Bft) 97,83 %
09.08.2021 19:34 16,0 C 15,6 C 12,8 C 93 % 1016,9 hPa 0,0 l/m 0 min 0 min 71 W/m 6,4 km/h (2 Bft) 97,87 %
09.08.2021 19:36 16,0 C 15,6 C 12,8 C 93 % 1016,8 hPa 0,0 l/m 0 min 0 min 60 W/m 9,7 km/h (2 Bft) 97,87 %
09.08.2021 19:38 16,0 C 15,0 C 12,8 C 93 % 1016,8 hPa 0,0 l/m 0 min 0 min 58 W/m 9,7 km/h (2 Bft) 97,87 %
09.08.2021 19:40 16,0 C 15,0 C 12,8 C 93 % 1016,7 hPa 0,0 l/m 0 min 0 min 53 W/m 3,2 km/h (1 Bft) 97,87 %
09.08.2021 19:42 16,0 C 15,0 C 12,8 C 93 % 1016,8 hPa 0,0 l/m 0 min 0 min 43 W/m 6,4 km/h (2 Bft) 97,87 %
09.08.2021 19:44 16,0 C 15,0 C 12,8 C 93 % 1016,8 hPa 0,0 l/m 0 min 0 min 37 W/m 6,4 km/h (2 Bft) 97,87 %
09.08.2021 19:46 16,0 C 15,0 C 12,8 C 93 % 1016,8 hPa 0,0 l/m 0 min 2 min 39 W/m 9,7 km/h (2 Bft) 95,65 %
09.08.2021 19:48 16,0 C 15,0 C 12,8 C 93 % 1016,7 hPa 0,0 l/m 0 min 0 min 43 W/m 6,4 km/h (2 Bft) 97,87 %
09.08.2021 19:50 16,0 C 15,0 C 12,8 C 93 % 1016,7 hPa 0,0 l/m 0 min 0 min 39 W/m 3,2 km/h (1 Bft) 97,87 %
09.08.2021 19:52 16,0 C 15,6 C 13,4 C 93 % 1016,7 hPa 0,0 l/m 0 min 0 min 36 W/m 9,7 km/h (2 Bft) 97,87 %
09.08.2021 19:54 16,0 C 15,0 C 12,8 C 93 % 1016,7 hPa 0,0 l/m 0 min 0 min 34 W/m 12,9 km/h (3 Bft) 97,87 %
09.08.2021 19:56 16,0 C 15,0 C 12,8 C 93 % 1016,7 hPa 0,0 l/m 0 min 0 min 37 W/m 6,4 km/h (2 Bft) 97,83 %
09.08.2021 19:58 15,9 C 15,0 C 12,8 C 93 % 1016,8 hPa 0,0 l/m 0 min 0 min 42 W/m 6,4 km/h (2 Bft) 100,00 %
09.08.2021 20:00 16,0 C 15,0 C 13,4 C 93 % 1016,8 hPa 0,0 l/m 0 min 0 min 45 W/m 6,4 km/h (2 Bft) 97,87 %
09.08.2021 20:02 16,0 C 15,0 C 13,4 C 93 % 1016,8 hPa 0,0 l/m 0 min 2 min 47 W/m 9,7 km/h (2 Bft) 100,00 %
09.08.2021 20:04 16,0 C 15,0 C 13,4 C 94 % 1016,9 hPa 0,0 l/m 0 min 0 min 48 W/m 9,7 km/h (2 Bft) 97,87 %
09.08.2021 20:06 16,0 C 15,0 C 12,8 C 94 % 1016,8 hPa 0,0 l/m 0 min 0 min 44 W/m 6,4 km/h (2 Bft) 100,00 %
09.08.2021 20:08 16,0 C 15,0 C 12,8 C 94 % 1016,8 hPa 0,0 l/m 0 min 0 min 39 W/m 6,4 km/h (2 Bft) 97,83 %
09.08.2021 20:10 16,0 C 15,0 C 12,8 C 94 % 1016,8 hPa 0,0 l/m 0 min 0 min 35 W/m 6,4 km/h (2 Bft) 95,74 %
09.08.2021 20:12 15,9 C 15,0 C 12,8 C 94 % 1016,7 hPa 0,0 l/m 0 min 0 min 28 W/m 6,4 km/h (2 Bft) 95,74 %
09.08.2021 20:14 16,0 C 15,0 C 12,8 C 94 % 1016,7 hPa 0,0 l/m 0 min 0 min 26 W/m 3,2 km/h (1 Bft) 98,18 %
09.08.2021 20:16 15,9 C 15,0 C 12,8 C 93 % 1016,7 hPa 0,0 l/m 0 min 0 min 26 W/m 6,4 km/h (2 Bft) 93,48 %
09.08.2021 20:18 15,9 C 15,0 C 12,8 C 93 % 1016,7 hPa 0,0 l/m 0 min 0 min 23 W/m 12,9 km/h (3 Bft) 95,74 %
09.08.2021 20:22 15,9 C 15,0 C 12,8 C 94 % 1016,7 hPa 0,0 l/m 0 min 0 min 19 W/m 6,4 km/h (2 Bft) 95,96 %
09.08.2021 20:24 15,9 C 15,0 C 12,8 C 94 % 1016,7 hPa 0,0 l/m 0 min 0 min 13 W/m 6,4 km/h (2 Bft) 93,62 %
09.08.2021 20:26 15,9 C 15,0 C 12,8 C 94 % 1016,8 hPa 0,0 l/m 0 min 0 min 11 W/m 6,4 km/h (2 Bft) 93,48 %
09.08.2021 20:28 15,9 C 15,0 C 12,8 C 94 % 1016,8 hPa 0,0 l/m 0 min 0 min 10 W/m 3,2 km/h (1 Bft) 95,74 %
09.08.2021 20:30 15,9 C 15,0 C 13,4 C 94 % 1016,8 hPa 0,0 l/m 0 min 2 min 9 W/m 6,4 km/h (2 Bft) 93,62 %
09.08.2021 20:32 16,0 C 15,0 C 13,4 C 94 % 1016,8 hPa 0,0 l/m 0 min 2 min 9 W/m 6,4 km/h (2 Bft) 93,62 %
09.08.2021 20:34 16,0 C 15,0 C 13,4 C 94 % 1016,8 hPa 0,0 l/m 0 min 2 min 11 W/m 3,2 km/h (1 Bft) 93,62 %
09.08.2021 20:36 16,0 C 15,0 C 13,4 C 94 % 1016,8 hPa 0,2 l/m 0 min 2 min 12 W/m 6,4 km/h (2 Bft) 93,62 %
09.08.2021 20:38 16,0 C 15,0 C 13,4 C 94 % 1016,8 hPa 0,0 l/m 0 min 2 min 11 W/m 6,4 km/h (2 Bft) 95,65 %
09.08.2021 20:40 16,0 C 15,0 C 13,4 C 94 % 1016,7 hPa 0,0 l/m 0 min 2 min 9 W/m 3,2 km/h (1 Bft) 93,62 %
09.08.2021 20:42 16,0 C 15,0 C 13,4 C 94 % 1016,7 hPa 0,0 l/m 0 min 2 min 9 W/m 3,2 km/h (1 Bft) 9,09 %
09.08.2021 20:44 16,0 C 15,0 C 13,4 C 94 % 1016,7 hPa 0,0 l/m 0 min 2 min 9 W/m 6,4 km/h (2 Bft) 95,74 %
09.08.2021 20:46 15,9 C 15,0 C 12,8 C 94 % 1016,6 hPa 0,0 l/m 0 min 2 min 7 W/m 3,2 km/h (1 Bft) 95,74 %
09.08.2021 20:48 15,9 C 15,0 C 12,8 C 94 % 1016,6 hPa 0,0 l/m 0 min 0 min 5 W/m 6,4 km/h (2 Bft) 95,65 %
09.08.2021 20:50 15,9 C 14,4 C 12,8 C 94 % 1016,5 hPa 0,0 l/m 0 min 0 min 5 W/m 6,4 km/h (2 Bft) 93,62 %
09.08.2021 20:52 15,8 C 14,4 C 12,8 C 94 % 1016,5 hPa 0,0 l/m 0 min 0 min 5 W/m 6,4 km/h (2 Bft) 91,49 %
09.08.2021 20:54 15,8 C 14,4 C 12,8 C 94 % 1016,6 hPa 0,0 l/m 0 min 0 min 0 W/m 12,9 km/h (3 Bft) 95,74 %
09.08.2021 20:56 15,8 C 14,4 C 12,8 C 94 % 1016,7 hPa 0,0 l/m 0 min 0 min 0 W/m 6,4 km/h (2 Bft) 95,74 %
09.08.2021 20:58 15,8 C 15,0 C 12,8 C 94 % 1016,7 hPa 0,0 l/m 0 min 0 min 0 W/m 9,7 km/h (2 Bft) 95,74 %
09.08.2021 21:00 15,8 C 15,0 C 12,8 C 94 % 1016,8 hPa 0,0 l/m 0 min 0 min 0 W/m 6,4 km/h (2 Bft) 97,83 %
09.08.2021 21:02 15,8 C 15,0 C 12,8 C 94 % 1016,8 hPa 0,0 l/m 0 min 0 min 0 W/m 12,9 km/h (3 Bft) 95,74 %
09.08.2021 21:04 15,8 C 15,0 C 12,8 C 94 % 1017,0 hPa 0,0 l/m 0 min 0 min 0 W/m 12,9 km/h (3 Bft) 100,00 %
09.08.2021 21:06 15,8 C 15,0 C 12,8 C 94 % 1017,1 hPa 0,0 l/m 0 min 0 min 0 W/m 16,1 km/h (3 Bft) 100,00 %
09.08.2021 21:08 15,8 C 14,4 C 13,4 C 95 % 1017,2 hPa 0,4 l/m 0 min 2 min 0 W/m 16,1 km/h (3 Bft) 100,00 %
09.08.2021 21:10 15,7 C 14,4 C 13,4 C 95 % 1017,1 hPa 0,2 l/m 0 min 2 min 0 W/m 9,7 km/h (2 Bft) 97,87 %
09.08.2021 21:12 15,7 C 14,4 C 13,4 C 95 % 1017,2 hPa 0,2 l/m 0 min 2 min 0 W/m 12,9 km/h (3 Bft) 100,00 %
09.08.2021 21:14 15,7 C 14,4 C 13,4 C 95 % 1017,1 hPa 0,2 l/m 0 min 2 min 0 W/m 6,4 km/h (2 Bft) 97,87 %
09.08.2021 21:16 15,7 C 14,4 C 13,4 C 95 % 1017,1 hPa 0,0 l/m 0 min 2 min 0 W/m 6,4 km/h (2 Bft) 100,00 %
09.08.2021 21:18 15,7 C 14,4 C 12,8 C 95 % 1017,1 hPa 0,4 l/m 0 min 2 min 0 W/m 6,4 km/h (2 Bft) 100,00 %
09.08.2021 21:20 15,7 C 14,4 C 13,4 C 95 % 1017,1 hPa 0,0 l/m 0 min 2 min 0 W/m 6,4 km/h (2 Bft) 97,87 %
09.08.2021 21:22 15,7 C 14,4 C 13,4 C 95 % 1017,0 hPa 0,2 l/m 0 min 2 min 0 W/m 6,4 km/h (2 Bft) 97,87 %
09.08.2021 21:24 15,7 C 14,4 C 13,4 C 95 % 1017,0 hPa 0,0 l/m 0 min 2 min 0 W/m 3,2 km/h (1 Bft) 95,65 %
09.08.2021 21:26 15,8 C 14,4 C 13,4 C 95 % 1016,9 hPa 0,2 l/m 0 min 2 min 0 W/m 0,0 km/h (0 Bft) 97,87 %
09.08.2021 21:28 15,8 C 14,4 C 13,4 C 95 % 1017,0 hPa 0,0 l/m 0 min 0 min 0 W/m 9,7 km/h (2 Bft) 97,87 %
09.08.2021 21:30 15,8 C 14,4 C 13,4 C 95 % 1017,0 hPa 0,0 l/m 0 min 0 min 0 W/m 6,4 km/h (2 Bft) 97,87 %
09.08.2021 21:32 15,8 C 15,0 C 13,4 C 95 % 1017,0 hPa 0,0 l/m 0 min 0 min 0 W/m 3,2 km/h (1 Bft) 100,00 %
09.08.2021 21:34 15,8 C 14,4 C 13,4 C 95 % 1017,0 hPa 0,0 l/m 0 min 0 min 0 W/m 3,2 km/h (1 Bft) 95,74 %
09.08.2021 21:36 15,8 C 14,4 C 13,4 C 95 % 1017,0 hPa 0,0 l/m 0 min 0 min 0 W/m 3,2 km/h (1 Bft) 97,92 %
09.08.2021 21:38 15,8 C 14,4 C 13,4 C 95 % 1017,0 hPa 0,0 l/m 0 min 0 min 0 W/m 3,2 km/h (1 Bft) 95,74 %
09.08.2021 21:40 15,8 C 14,4 C 13,4 C 95 % 1016,9 hPa 0,0 l/m 0 min 0 min 0 W/m 3,2 km/h (1 Bft) 97,83 %
09.08.2021 21:42 15,8 C 14,4 C 13,4 C 95 % 1016,9 hPa 0,0 l/m 0 min 0 min 0 W/m 3,2 km/h (1 Bft) 97,87 %
09.08.2021 21:44 15,7 C 14,4 C 13,4 C 95 % 1017,0 hPa 0,0 l/m 0 min 0 min 0 W/m 6,4 km/h (2 Bft) 97,87 %
09.08.2021 21:46 15,7 C 14,4 C 13,4 C 95 % 1017,0 hPa 0,0 l/m 0 min 0 min 0 W/m 3,2 km/h (1 Bft) 97,87 %
09.08.2021 21:48 15,7 C 14,4 C 13,4 C 95 % 1017,0 hPa 0,0 l/m 0 min 0 min 0 W/m 3,2 km/h (1 Bft) 97,87 %
09.08.2021 21:50 15,7 C 14,4 C 13,4 C 95 % 1017,0 hPa 0,0 l/m 0 min 0 min 0 W/m 6,4 km/h (2 Bft) 97,87 %
09.08.2021 21:52 15,6 C 14,4 C 13,4 C 95 % 1017,1 hPa 0,0 l/m 0 min 0 min 0 W/m 6,4 km/h (2 Bft) 97,83 %
09.08.2021 21:54 15,6 C 14,4 C 13,4 C 95 % 1017,1 hPa 0,0 l/m 0 min 0 min 0 W/m 3,2 km/h (1 Bft) 100,00 %
09.08.2021 21:56 15,6 C 14,4 C 13,4 C 95 % 1017,1 hPa 0,0 l/m 0 min 0 min 0 W/m 6,4 km/h (2 Bft) 100,00 %
09.08.2021 21:58 15,6 C 14,4 C 13,4 C 95 % 1017,2 hPa 0,0 l/m 0 min 0 min 0 W/m 12,9 km/h (3 Bft) 100,00 %
09.08.2021 22:00 15,6 C 14,4 C 13,4 C 95 % 1017,2 hPa 0,0 l/m 0 min 0 min 0 W/m 3,2 km/h (1 Bft) 100,00 %
09.08.2021 22:02 15,6 C 14,4 C 13,4 C 95 % 1017,2 hPa 0,0 l/m 0 min 0 min 0 W/m 3,2 km/h (1 Bft) 100,00 %
09.08.2021 22:04 15,6 C 14,4 C 13,4 C 95 % 1017,2 hPa 0,0 l/m 0 min 0 min 0 W/m 6,4 km/h (2 Bft) 100,00 %
09.08.2021 22:06 15,5 C 14,4 C 13,4 C 95 % 1017,2 hPa 0,0 l/m 0 min 0 min 0 W/m 3,2 km/h (1 Bft) 100,00 %
09.08.2021 22:08 15,5 C 14,4 C 13,4 C 95 % 1017,2 hPa 0,0 l/m 0 min 0 min 0 W/m 6,4 km/h (2 Bft) 100,00 %
09.08.2021 22:10 15,5 C 14,4 C 13,4 C 95 % 1017,2 hPa 0,0 l/m 0 min 0 min 0 W/m 6,4 km/h (2 Bft) 100,00 %
09.08.2021 22:12 15,5 C 14,4 C 13,4 C 95 % 1017,2 hPa 0,0 l/m 0 min 0 min 0 W/m 12,9 km/h (3 Bft) 100,00 %
09.08.2021 22:14 15,5 C 14,4 C 13,4 C 95 % 1017,2 hPa 0,0 l/m 0 min 0 min 0 W/m 3,2 km/h (1 Bft) 100,00 %
09.08.2021 22:16 15,5 C 14,4 C 12,8 C 95 % 1017,2 hPa 0,0 l/m 0 min 0 min 0 W/m 6,4 km/h (2 Bft) 100,00 %
09.08.2021 22:18 15,4 C 14,4 C 13,4 C 95 % 1017,2 hPa 0,0 l/m 0 min 0 min 0 W/m 3,2 km/h (1 Bft) 100,00 %
09.08.2021 22:20 15,4 C 14,4 C 13,4 C 95 % 1017,2 hPa 0,0 l/m 0 min 0 min 0 W/m 6,4 km/h (2 Bft) 100,00 %
09.08.2021 22:22 15,4 C 14,4 C 13,4 C 95 % 1017,3 hPa 0,0 l/m 0 min 0 min 0 W/m 6,4 km/h (2 Bft) 100,00 %
09.08.2021 22:24 15,4 C 14,4 C 12,8 C 95 % 1017,2 hPa 0,0 l/m 0 min 0 min 0 W/m 6,4 km/h (2 Bft) 100,00 %
09.08.2021 22:26 15,4 C 14,4 C 13,4 C 95 % 1017,2 hPa 0,0 l/m 0 min 0 min 0 W/m 9,7 km/h (2 Bft) 100,00 %
09.08.2021 22:28 15,4 C 14,4 C 13,4 C 95 % 1017,3 hPa 0,0 l/m 0 min 0 min 0 W/m 6,4 km/h (2 Bft) 100,00 %
09.08.2021 22:30 15,4 C 14,4 C 13,4 C 95 % 1017,2 hPa 0,0 l/m 0 min 0 min 0 W/m 6,4 km/h (2 Bft) 100,00 %
09.08.2021 22:32 15,4 C 14,4 C 13,4 C 95 % 1017,3 hPa 0,0 l/m 0 min 0 min 0 W/m 12,9 km/h (3 Bft) 100,00 %
09.08.2021 22:34 15,4 C 14,4 C 13,4 C 95 % 1017,2 hPa 0,0 l/m 0 min 2 min 0 W/m 12,9 km/h (3 Bft) 100,00 %
09.08.2021 22:36 15,3 C 13,9 C 12,8 C 95 % 1017,2 hPa 0,0 l/m 0 min 0 min 0 W/m 12,9 km/h (3 Bft) 97,87 %
09.08.2021 22:38 15,3 C 13,9 C 12,8 C 95 % 1017,3 hPa 0,0 l/m 0 min 0 min 0 W/m 6,4 km/h (2 Bft) 100,00 %
09.08.2021 22:40 15,3 C 13,9 C 12,8 C 95 % 1017,2 hPa 0,0 l/m 0 min 0 min 0 W/m 6,4 km/h (2 Bft) 100,00 %
09.08.2021 22:42 15,2 C 13,9 C 12,8 C 96 % 1017,2 hPa 0,0 l/m 0 min 0 min 0 W/m 6,4 km/h (2 Bft) 97,87 %
09.08.2021 22:44 15,2 C 13,9 C 12,8 C 96 % 1017,2 hPa 0,0 l/m 0 min 0 min 0 W/m 12,9 km/h (3 Bft) 100,00 %
09.08.2021 22:46 15,2 C 13,9 C 13,4 C 96 % 1017,1 hPa 0,0 l/m 0 min 0 min 0 W/m 12,9 km/h (3 Bft) 95,74 %
09.08.2021 22:48 15,2 C 14,4 C 13,4 C 96 % 1017,1 hPa 0,0 l/m 0 min 0 min 0 W/m 6,4 km/h (2 Bft) 100,00 %
09.08.2021 22:50 15,1 C 14,4 C 13,4 C 96 % 1017,1 hPa 0,0 l/m 0 min 0 min 0 W/m 6,4 km/h (2 Bft) 100,00 %
09.08.2021 22:52 15,1 C 13,9 C 13,4 C 96 % 1017,1 hPa 0,0 l/m 0 min 0 min 0 W/m 9,7 km/h (2 Bft) 100,00 %
09.08.2021 22:54 15,1 C 13,9 C 13,4 C 96 % 1017,1 hPa 0,0 l/m 0 min 0 min 0 W/m 6,4 km/h (2 Bft) 97,87 %
09.08.2021 22:56 15,2 C 13,9 C 13,4 C 96 % 1017,1 hPa 0,0 l/m 0 min 0 min 0 W/m 3,2 km/h (1 Bft) 97,87 %
09.08.2021 22:58 15,2 C 13,9 C 13,4 C 96 % 1017,1 hPa 0,0 l/m 0 min 0 min 0 W/m 6,4 km/h (2 Bft) 97,87 %
09.08.2021 23:00 15,2 C 14,4 C 13,4 C 96 % 1017,2 hPa 0,0 l/m 0 min 0 min 0 W/m 12,9 km/h (3 Bft) 97,87 %
09.08.2021 23:02 15,2 C 14,4 C 13,4 C 96 % 1017,1 hPa 0,0 l/m 0 min 0 min 0 W/m 6,4 km/h (2 Bft) 95,74 %
09.08.2021 23:04 15,1 C 14,4 C 13,4 C 96 % 1017,0 hPa 0,0 l/m 0 min 0 min 0 W/m 6,4 km/h (2 Bft) 97,83 %
09.08.2021 23:06 15,2 C 14,4 C 13,4 C 96 % 1017,0 hPa 0,0 l/m 0 min 0 min 0 W/m 6,4 km/h (2 Bft) 93,62 %
09.08.2021 23:08 15,2 C 14,4 C 13,4 C 96 % 1017,0 hPa 0,0 l/m 0 min 0 min 0 W/m 12,9 km/h (3 Bft) 95,74 %
09.08.2021 23:10 15,2 C 14,4 C 13,4 C 96 % 1017,0 hPa 0,0 l/m 0 min 0 min 0 W/m 6,4 km/h (2 Bft) 91,49 %
09.08.2021 23:12 15,1 C 14,4 C 13,4 C 96 % 1017,0 hPa 0,0 l/m 0 min 0 min 0 W/m 6,4 km/h (2 Bft) 95,74 %
09.08.2021 23:14 15,1 C 14,4 C 13,4 C 96 % 1017,0 hPa 0,0 l/m 0 min 0 min 0 W/m 6,4 km/h (2 Bft) 93,62 %
09.08.2021 23:16 15,1 C 14,4 C 13,4 C 96 % 1017,0 hPa 0,0 l/m 0 min 0 min 0 W/m 12,9 km/h (3 Bft) 93,48 %
09.08.2021 23:18 15,1 C 14,4 C 13,4 C 96 % 1017,0 hPa 0,0 l/m 0 min 0 min 0 W/m 6,4 km/h (2 Bft) 93,62 %
09.08.2021 23:20 15,1 C 14,4 C 13,4 C 96 % 1016,9 hPa 0,0 l/m 0 min 0 min 0 W/m 6,4 km/h (2 Bft) 93,62 %
09.08.2021 23:22 15,1 C 14,4 C 13,4 C 96 % 1016,9 hPa 0,0 l/m 0 min 0 min 0 W/m 6,4 km/h (2 Bft) 93,62 %
09.08.2021 23:24 15,1 C 13,9 C 13,4 C 96 % 1016,9 hPa 0,0 l/m 0 min 0 min 0 W/m 12,9 km/h (3 Bft) 93,62 %
09.08.2021 23:26 15,0 C 13,9 C 13,4 C 96 % 1016,9 hPa 0,0 l/m 0 min 0 min 0 W/m 12,9 km/h (3 Bft) 91,49 %
09.08.2021 23:28 15,0 C 13,9 C 13,4 C 96 % 1016,9 hPa 0,0 l/m 0 min 0 min 0 W/m 6,4 km/h (2 Bft) 91,30 %
09.08.2021 23:30 15,0 C 13,9 C 13,4 C 96 % 1016,9 hPa 0,0 l/m 0 min 0 min 0 W/m 6,4 km/h (2 Bft) 93,62 %
09.08.2021 23:32 15,0 C 13,9 C 13,4 C 96 % 1016,9 hPa 0,0 l/m 0 min 0 min 0 W/m 12,9 km/h (3 Bft) 93,62 %
09.08.2021 23:34 15,0 C 13,9 C 13,4 C 96 % 1016,9 hPa 0,0 l/m 0 min 0 min 0 W/m 12,9 km/h (3 Bft) 93,62 %
09.08.2021 23:36 15,0 C 13,9 C 13,4 C 96 % 1016,9 hPa 0,0 l/m 0 min 0 min 0 W/m 6,4 km/h (2 Bft) 93,62 %
09.08.2021 23:38 15,0 C 13,9 C 13,4 C 96 % 1016,9 hPa 0,0 l/m 0 min 0 min 0 W/m 6,4 km/h (2 Bft) 91,49 %
09.08.2021 23:40 15,0 C 13,9 C 13,4 C 96 % 1016,9 hPa 0,0 l/m 0 min 0 min 0 W/m 3,2 km/h (1 Bft) 95,65 %
09.08.2021 23:42 15,0 C 13,9 C 13,4 C 96 % 1017,0 hPa 0,0 l/m 0 min 0 min 0 W/m 6,4 km/h (2 Bft) 93,62 %
09.08.2021 23:44 15,0 C 13,9 C 13,4 C 96 % 1017,0 hPa 0,0 l/m 0 min 0 min 0 W/m 6,4 km/h (2 Bft) 95,74 %
09.08.2021 23:46 15,0 C 13,9 C 13,4 C 96 % 1017,0 hPa 0,0 l/m 0 min 0 min 0 W/m 3,2 km/h (1 Bft) 93,62 %
09.08.2021 23:48 15,0 C 13,9 C 13,4 C 96 % 1017,0 hPa 0,0 l/m 0 min 0 min 0 W/m 6,4 km/h (2 Bft) 93,62 %
09.08.2021 23:50 15,0 C 13,9 C 13,4 C 96 % 1017,1 hPa 0,0 l/m 0 min 0 min 0 W/m 3,2 km/h (1 Bft) 97,87 %
09.08.2021 23:52 15,0 C 13,9 C 13,4 C 96 % 1017,0 hPa 0,0 l/m 0 min 0 min 0 W/m 6,4 km/h (2 Bft) 97,83 %
09.08.2021 23:54 15,0 C 14,4 C 13,4 C 96 % 1017,1 hPa 0,0 l/m 0 min 0 min 0 W/m 6,4 km/h (2 Bft) 95,74 %
09.08.2021 23:56 15,0 C 13,9 C 13,4 C 96 % 1017,1 hPa 0,0 l/m 0 min 0 min 0 W/m 9,7 km/h (2 Bft) 100,00 %
09.08.2021 23:58 15,0 C 13,9 C 13,4 C 96 % 1017,1 hPa 0,0 l/m 0 min 0 min 0 W/m 6,4 km/h (2 Bft) 97,87 %
_ Min-Zeit 03:06 02:26 01:56 16:08 00:00 - - - - 02:10 20:42
Minimum _ 14,2 C 13,3 C 12,3 C 62 % 1014,3 hPa - - - - 0,0 km/h (0 Bft) 9,09 %
_ Max-Zeit 16:04 16:00 12:14 22:42 22:22 18:12 12:08 18:08 13:06 12:28 00:34
Maximum _ 22,1 C 24,4 C 21,7 C 96 % 1017,3 hPa 1,8 l/m 4 min 4 min 983 W/m 54,7 km/h
W-SW (7 Bft)
100,00 %
Durchschnitt _ 17,0 C 16,7 C 14,9 C 84 % 1015,9 hPa #7,0 l/m #4:12 h #1:58 h 228 W/m 12,0 km/h (2 Bft) 97,38 %
© 2021 W. Hausmann